U26652 / G-EZIX 7700 Squawk Report (21st of May, 2019)

Aircraft A319 Reg No. G-EZIX Age 13 years old
Model A319 Jet engines 2 First flight 27-10-05
Registered 17-11-05 Rollout 11-05 Delivered 17-11-05
Construction No. 2605 Line No. N/A Series 111
ADSHEX 400CD7 Airline name easyJet Owner N/A
Airfield based Luton~Beds~G First tracked 2017-07-13 07:56:00

Flight history for G-EZIX

Route Flight No Date Playback
Barajas (MAD) - Bristol (BRS) U26036 2019-06-26 21:56:00
Bristol (BRS) - Barajas (MAD) U26035 2019-06-26 19:08:00
Inverness (INV) - Bristol (BRS) U2394 2019-06-26 16:55:00
Bristol (BRS) - Inverness (INV) U2393 2019-06-26 14:09:00
Cote D Azur (NCE) - Bristol (BRS) U26112 2019-06-26 11:13:00
Bristol (BRS) - Cote D Azur (NCE) U26111 2019-06-26 09:17:00
Son Sant Joan (PMI) - Bristol (BRS) U26042 2019-06-26 06:49:00
Bristol (BRS) - Son Sant Joan (PMI) U26041 2019-06-25 19:45:00
Provence (MRS) - Bristol (BRS) U26108 2019-06-25 16:38:00
Bristol (BRS) - Provence (MRS) U26107 2019-06-25 14:06:00
Pisa (PSA) - Bristol (BRS) U26190 2019-06-25 11:43:00
Bristol (BRS) - Pisa (PSA) U26189 2019-06-25 09:48:00
Nantes Atlantique (NTE) - Bristol (BRS) U26024 2019-06-25 06:41:00
Bristol (BRS) - Nantes Atlantique (NTE) U26023 2019-06-24 18:48:00
Glasgow (GLA) - Bristol (BRS) U2404 2019-06-24 17:47:00
Bristol (BRS) - Glasgow (GLA) U2403 2019-06-24 13:57:00
Pisa (PSA) - Bristol (BRS) U26190 2019-06-24 12:57:00
Bristol (BRS) - Pisa (PSA) U26189 2019-06-24 09:55:00
Malaga (AGP) - Bristol (BRS) U26058 2019-06-24 06:45:00
Bristol (BRS) - Malaga (AGP) U26057 2019-06-23 22:59:00
Time Lat Lon Altitude Heading Speed Vertical Rate
2019-05-21 12:16:48 GMT 54.659927 -6.215723 0 334 11 0
2019-05-21 12:16:38 GMT 54.659569 -6.215253 0 272 10 0
2019-05-21 12:16:27 GMT 54.659637 -6.214412 0 284 14 0
2019-05-21 12:16:16 GMT 54.659168 -6.213559 0 334 16 0
2019-05-21 12:16:11 GMT 54.658798 -6.213289 0 340 17 0
2019-05-21 12:16:02 GMT 54.658195 -6.213334 0 47 17 0
2019-05-21 12:15:49 GMT 54.657681 -6.215016 0 64 15 0
2019-05-21 12:15:43 GMT 54.657509 -6.215616 0 56 11 0
2019-05-21 12:15:30 GMT 54.657249 -6.216202 0 101 6 0
2019-05-21 12:15:22 GMT 54.657272 -6.216556 0 182 7 0
2019-05-21 12:15:06 GMT 54.657612 -6.215576 0 250 24 0
2019-05-21 12:14:59 GMT 54.658009 -6.213892 0 244 51 0
2019-05-21 12:14:48 GMT 54.659588 -6.207858 0 245 110 0
2019-05-21 12:14:39 GMT 54.661869 -6.199452 50 245 131 -256
2019-05-21 12:14:30 GMT 54.664078 -6.191361 175 246 130 -768
2019-05-21 12:14:24 GMT 54.665726 -6.185060 250 246 127 -640
2019-05-21 12:14:20 GMT 54.666595 -6.181748 275 245 129 -640
2019-05-21 12:14:15 GMT 54.669228 -6.172152 400 245 128 -704
2019-05-21 12:14:10 GMT 54.669228 -6.172152 400 244 129 -832
2019-05-21 12:14:03 GMT 54.671040 -6.165577 475 246 129 -704
2019-05-21 12:14:00 GMT 54.671814 -6.162522 525 246 128 -704
2019-05-21 12:13:54 GMT 54.673042 -6.158087 625 246 125 -640
2019-05-21 12:13:49 GMT 54.674347 -6.153093 625 246 126 -576
2019-05-21 12:13:43 GMT 54.676022 -6.146767 725 246 126 -704
2019-05-21 12:13:39 GMT 54.676895 -6.143539 750 245 127 -576
2019-05-21 12:13:32 GMT 54.678535 -6.137695 825 245 124 -384
2019-05-21 12:13:28 GMT 54.679466 -6.134200 850 247 127 -320
2019-05-21 12:13:22 GMT 54.681015 -6.127948 975 246 128 -1024
2019-05-21 12:13:19 GMT 54.681793 -6.125039 1,000 245 127 -256
2019-05-21 12:13:14 GMT 54.683670 -6.118335 1,075 245 127 -896
2019-05-21 12:13:07 GMT 54.684589 -6.114974 1,175 246 127 -512
2019-05-21 12:13:04 GMT 54.685547 -6.111387 1,175 247 127 -640
2019-05-21 12:12:57 GMT 54.687008 -6.105485 1,275 248 126 -704
2019-05-21 12:12:53 GMT 54.688019 -6.101209 1,275 248 127 -768
2019-05-21 12:12:49 GMT 54.688889 -6.097654 1,375 248 130 -448
2019-05-21 12:12:45 GMT 54.689713 -6.094181 1,375 248 130 -448
2019-05-21 12:12:42 GMT 54.690536 -6.090788 1,400 247 138 -576
2019-05-21 12:12:39 GMT 54.691990 -6.084761 1,450 247 141 -512
2019-05-21 12:12:33 GMT 54.692780 -6.081765 1,475 248 146 -576
2019-05-21 12:12:30 GMT 54.693558 -6.078590 1,525 249 148 -1472
2019-05-21 12:12:27 GMT 54.694363 -6.075107 1,700 252 148 -1344
2019-05-21 12:12:21 GMT 54.695854 -6.067116 1,750 257 153 -640
2019-05-21 12:12:16 GMT 54.696411 -6.062872 1,825 261 158 -960
2019-05-21 12:12:13 GMT 54.696854 -6.058475 1,950 266 162 -1024
2019-05-21 12:12:09 GMT 54.697205 -6.053800 1,900 266 162 -1024
2019-05-21 12:12:04 GMT 54.697250 -6.047141 1,950 273 165 -832
2019-05-21 12:12:00 GMT 54.697037 -6.041430 2,025 275 169 -896
2019-05-21 12:11:56 GMT 54.696831 -6.036405 2,100 275 184 -448
2019-05-21 12:11:53 GMT 54.696690 -6.031411 2,100 274 181 -704
2019-05-21 12:11:49 GMT 54.696461 -6.026167 2,150 275 183 -512
2019-05-21 12:11:46 GMT 54.696274 -6.021340 2,325 275 184 -320
2019-05-21 12:11:41 GMT 54.695984 -6.013964 2,225 275 183 -512
2019-05-21 12:11:38 GMT 54.695801 -6.009441 2,250 275 183 -512
2019-05-21 12:11:35 GMT 54.695663 -6.005967 2,325 275 183 -512
2019-05-21 12:11:31 GMT 54.695389 -5.999617 2,325 275 181 -320
2019-05-21 12:11:28 GMT 54.695114 -5.994335 2,325 275 181 0
2019-05-21 12:11:25 GMT 54.694969 -5.991377 2,325 276 181 -64
2019-05-21 12:11:22 GMT 54.694736 -5.986550 2,325 277 182 -64
2019-05-21 12:11:18 GMT 54.694382 -5.981006 2,325 277 182 64
2019-05-21 12:11:15 GMT 54.694016 -5.976724 2,325 280 182 0
2019-05-21 12:11:10 GMT 54.693153 -5.969238 2,325 288 183 -256
2019-05-21 12:11:07 GMT 54.692596 -5.966325 2,350 288 183 -192
2019-05-21 12:11:04 GMT 54.691177 -5.961376 2,375 312 189 -512
2019-05-21 12:11:01 GMT 54.689896 -5.958252 2,375 312 189 -448
2019-05-21 12:10:57 GMT 54.687054 -5.953175 2,400 324 191 -448
2019-05-21 12:10:53 GMT 54.684723 -5.950389 2,425 329 193 -384
2019-05-21 12:10:50 GMT 54.682343 -5.948289 2,450 336 195 -384
2019-05-21 12:10:47 GMT 54.678955 -5.946350 2,475 349 198 -576
2019-05-21 12:10:44 GMT 54.676674 -5.945684 2,500 354 200 -576
2019-05-21 12:10:39 GMT 54.672112 -5.944935 2,550 357 205 -384
2019-05-21 12:10:36 GMT 54.668758 -5.944519 2,575 357 205 -448
2019-05-21 12:10:33 GMT 54.666851 -5.944269 2,600 357 207 -512
2019-05-21 12:10:29 GMT 54.662151 -5.943853 2,625 358 211 -192
2019-05-21 12:10:26 GMT 54.659218 -5.943604 2,625 358 211 -192
2019-05-21 12:10:23 GMT 54.656841 -5.943437 2,650 359 213 -256
2019-05-21 12:10:20 GMT 54.654282 -5.943271 2,650 0 213 -192
2019-05-21 12:10:16 GMT 54.649673 -5.943354 2,675 3 214 -384
2019-05-21 12:10:13 GMT 54.646454 -5.943846 2,700 7 215 -768
2019-05-21 12:10:09 GMT 54.642223 -5.944935 2,775 10 217 -896
2019-05-21 12:10:05 GMT 54.639221 -5.946027 2,800 11 219 -640
2019-05-21 12:10:01 GMT 54.633728 -5.947966 2,850 11 221 -320
2019-05-21 12:09:56 GMT 54.629421 -5.949513 2,875 11 224 -768
2019-05-21 12:09:53 GMT 54.626221 -5.950632 2,925 11 225 -960
2019-05-21 12:09:50 GMT 54.618988 -5.953217 3,250 11 226 -1408
2019-05-21 12:09:45 GMT 54.618988 -5.953217 3,100 11 225 -1536
2019-05-21 12:09:42 GMT 54.615692 -5.954347 3,150 12 225 -1600
2019-05-21 12:09:38 GMT 54.611267 -5.956005 3,275 11 223 -1792
2019-05-21 12:09:35 GMT 54.608276 -5.957013 3,350 11 222 -1920
2019-05-21 12:09:31 GMT 54.604065 -5.958548 3,500 11 220 -2048
2019-05-21 12:09:28 GMT 54.600655 -5.959750 3,625 11 219 -1728
2019-05-21 12:09:25 GMT 54.598297 -5.960648 3,675 11 218 -1216
2019-05-21 12:09:19 GMT 54.592667 -5.962668 3,725 11 223 64
2019-05-21 12:09:15 GMT 54.587807 -5.964328 3,725 11 228 -320
2019-05-21 12:09:11 GMT 54.584362 -5.965493 3,750 10 232 -512
2019-05-21 12:09:07 GMT 54.579575 -5.967111 3,800 10 235 -384
2019-05-21 12:09:04 GMT 54.576725 -5.968073 3,800 10 236 -64
2019-05-21 12:09:01 GMT 54.573441 -5.969131 3,800 10 240 0
2019-05-21 12:08:56 GMT 54.569275 -5.970504 3,800 10 242 -192
2019-05-21 12:08:53 GMT 54.565228 -5.971818 3,825 10 245 -320
2019-05-21 12:08:50 GMT 54.561859 -5.972927 3,825 10 246 0
2019-05-21 12:08:47 GMT 54.558105 -5.974149 3,825 10 245 64
2019-05-21 12:08:44 GMT 54.553776 -5.975564 3,825 10 247 256
2019-05-21 12:08:40 GMT 54.550552 -5.976643 3,800 10 249 -64
2019-05-21 12:08:36 GMT 54.545258 -5.978394 3,800 11 253 0
2019-05-21 12:08:33 GMT 54.541859 -5.979559 3,825 11 262 -320
2019-05-21 12:08:29 GMT 54.537621 -5.980974 3,825 11 261 -256
2019-05-21 12:08:26 GMT 54.534084 -5.982222 3,850 11 262 -320
2019-05-21 12:08:23 GMT 54.526497 -5.984885 3,875 11 263 -448
2019-05-21 12:08:20 GMT 54.526497 -5.984885 3,900 11 262 -640
2019-05-21 12:08:17 GMT 54.524048 -5.985691 3,925 11 262 -960
2019-05-21 12:08:12 GMT 54.517605 -5.987965 4,025 11 259 -832
2019-05-21 12:08:09 GMT 54.513885 -5.989164 4,075 11 259 -1408
2019-05-21 12:08:06 GMT 54.509830 -5.990545 4,150 11 260 -1408
2019-05-21 12:08:02 GMT 54.505142 -5.992153 4,250 11 264 -1088
2019-05-21 12:07:59 GMT 54.502010 -5.993208 4,300 11 262 -1088
2019-05-21 12:07:56 GMT 54.497822 -5.994707 4,300 11 262 -1088
2019-05-21 12:07:53 GMT 54.494659 -5.995789 4,525 11 265 -1536
2019-05-21 12:07:50 GMT 54.490585 -5.997162 4,500 11 265 -1600
2019-05-21 12:07:47 GMT 54.487904 -5.998119 4,525 11 265 -1856
2019-05-21 12:07:41 GMT 54.480457 -6.000699 4,725 11 264 -1856
2019-05-21 12:07:38 GMT 54.477383 -6.001698 4,800 11 263 -1920
2019-05-21 12:07:35 GMT 54.473103 -6.003196 5,025 11 261 -2304
2019-05-21 12:07:32 GMT 54.469421 -6.004528 5,025 11 261 -2304
2019-05-21 12:07:29 GMT 54.465454 -6.005967 5,200 11 259 -2304
2019-05-21 12:07:23 GMT 54.458855 -6.008273 5,450 11 257 -2176
2019-05-21 12:07:20 GMT 54.455429 -6.009521 5,550 11 258 -2112
2019-05-21 12:07:16 GMT 54.451538 -6.010895 5,700 11 262 -1408
2019-05-21 12:07:12 GMT 54.446823 -6.012591 5,725 11 262 -1344
2019-05-21 12:07:09 GMT 54.441925 -6.014288 5,825 11 265 -1408
2019-05-21 12:07:06 GMT 54.435116 -6.016762 5,925 11 269 -640
2019-05-21 12:07:03 GMT 54.435116 -6.016762 5,950 11 269 -768
2019-05-21 12:07:00 GMT 54.431343 -6.018094 5,975 12 272 -320
2019-05-21 12:06:57 GMT 54.427620 -6.019426 5,975 12 273 0
2019-05-21 12:06:52 GMT 54.421803 -6.021590 5,975 12 276 -384
2019-05-21 12:06:49 GMT 54.417755 -6.023093 6,000 11 279 -576
2019-05-21 12:06:45 GMT 54.413746 -6.024503 6,025 11 279 -768
2019-05-21 12:06:42 GMT 54.409241 -6.026082 6,125 11 284 -1088
2019-05-21 12:06:38 GMT 54.403133 -6.028331 6,200 11 287 -960
2019-05-21 12:06:35 GMT 54.399876 -6.029497 6,250 12 289 -960
2019-05-21 12:06:32 GMT 54.396103 -6.030929 6,275 12 293 -960
2019-05-21 12:06:28 GMT 54.391159 -6.032787 6,350 12 301 -960
2019-05-21 12:06:25 GMT 54.386608 -6.034490 6,425 12 305 -1024
2019-05-21 12:06:22 GMT 54.382465 -6.036155 6,475 12 309 -1024
2019-05-21 12:06:19 GMT 54.378136 -6.037820 6,525 12 314 -896
2019-05-21 12:06:16 GMT 54.374496 -6.039249 6,550 12 315 -768
2019-05-21 12:06:13 GMT 54.368866 -6.041430 6,600 13 323 -896
2019-05-21 12:06:10 GMT 54.360165 -6.044894 6,675 12 330 -896
2019-05-21 12:06:07 GMT 54.360165 -6.044894 6,700 12 337 -832
2019-05-21 12:06:04 GMT 54.356209 -6.046392 6,750 12 347 -768
2019-05-21 12:06:01 GMT 54.352203 -6.047974 6,775 12 349 -832
2019-05-21 12:05:57 GMT 54.345932 -6.050478 6,825 12 355 -1216
2019-05-21 12:05:54 GMT 54.340240 -6.052634 6,950 12 360 -1344
2019-05-21 12:05:49 GMT 54.326042 -6.058128 7,050 12 365 -1536
2019-05-21 12:05:45 GMT 54.326042 -6.058128 7,175 12 369 -2304
2019-05-21 12:05:41 GMT 54.319473 -6.060656 7,250 12 369 -2560
2019-05-21 12:05:38 GMT 54.314850 -6.062434 7,350 12 371 -2880
2019-05-21 12:05:35 GMT 54.304535 -6.066451 7,525 13 370 -3072
2019-05-21 12:05:29 GMT 54.299553 -6.068531 7,925 13 372 -3008
2019-05-21 12:05:25 GMT 54.291595 -6.071723 8,050 13 373 -2816
2019-05-21 12:05:21 GMT 54.284225 -6.074712 8,250 13 375 -2496
2019-05-21 12:05:18 GMT 54.281910 -6.075689 8,300 13 376 -2432
2019-05-21 12:05:14 GMT 54.273998 -6.078913 8,425 13 377 -2432
2019-05-21 12:05:11 GMT 54.268875 -6.080933 8,625 13 377 -2752
2019-05-21 12:05:08 GMT 54.264038 -6.082816 8,700 12 377 -2688
2019-05-21 12:05:04 GMT 54.257217 -6.085327 8,975 11 377 -3072
2019-05-21 12:05:01 GMT 54.252777 -6.086818 9,075 10 377 -3264
2019-05-21 12:04:58 GMT 54.239643 -6.090869 9,750 10 377 -3456
2019-05-21 12:04:54 GMT 54.239643 -6.090869 9,475 10 377 -3456
2019-05-21 12:04:51 GMT 54.235172 -6.092242 9,675 10 377 -3456
2019-05-21 12:04:48 GMT 54.228241 -6.094352 9,975 10 377 -3328
2019-05-21 12:04:44 GMT 54.222931 -6.096000 10,075 10 378 -3008
2019-05-21 12:04:41 GMT 54.217392 -6.097648 10,175 10 378 -2752
2019-05-21 12:04:37 GMT 54.210159 -6.099845 10,450 9 380 -2624
2019-05-21 12:04:33 GMT 54.203796 -6.101774 10,550 10 382 -2560
2019-05-21 12:04:29 GMT 54.197479 -6.103768 10,725 10 383 -2048
2019-05-21 12:04:26 GMT 54.192158 -6.105410 10,800 10 383 -1728
2019-05-21 12:04:21 GMT 54.182755 -6.108479 10,950 10 386 -768
2019-05-21 12:04:18 GMT 54.177383 -6.110203 10,950 10 387 -640
2019-05-21 12:04:15 GMT 54.173260 -6.111549 10,975 10 388 -256
2019-05-21 12:04:12 GMT 54.166042 -6.113892 10,975 10 388 -128
2019-05-21 12:04:09 GMT 54.161499 -6.115304 10,975 10 390 128
2019-05-21 12:04:06 GMT 54.156189 -6.117109 10,975 10 391 64
2019-05-21 12:04:03 GMT 54.151062 -6.118757 10,975 10 391 -64
2019-05-21 12:04:00 GMT 54.144955 -6.120758 11,000 10 391 -64
2019-05-21 12:03:57 GMT 54.140533 -6.122212 11,000 10 385 -1280
2019-05-21 12:03:52 GMT 54.125336 -6.127232 11,050 10 391 -512
2019-05-21 12:03:49 GMT 54.125336 -6.127232 11,075 10 391 -768
2019-05-21 12:03:45 GMT 54.119072 -6.129240 11,175 10 387 -1152
2019-05-21 12:03:41 GMT 54.112610 -6.131391 11,225 10 385 -1280
2019-05-21 12:03:38 GMT 54.106407 -6.133360 11,275 10 385 -1408
2019-05-21 12:03:35 GMT 54.101074 -6.135158 11,425 10 386 -2048
2019-05-21 12:03:32 GMT 54.095375 -6.136995 11,450 10 387 -2240
2019-05-21 12:03:29 GMT 54.085415 -6.140226 11,550 10 387 -2240
2019-05-21 12:03:26 GMT 54.080887 -6.141750 11,700 10 390 -2176
2019-05-21 12:03:20 GMT 54.074615 -6.143781 11,975 10 388 -1344
2019-05-21 12:03:17 GMT 54.070843 -6.145073 11,925 11 393 -2496
2019-05-21 12:03:14 GMT 54.063908 -6.147416 12,100 11 395 -2880
2019-05-21 12:03:10 GMT 54.057907 -6.149440 14,950 10 388 -1344
2019-05-21 12:03:07 GMT 54.052223 -6.151294 12,675 11 396 -3392
2019-05-21 12:03:04 GMT 54.046684 -6.153152 12,625 11 395 -3584
2019-05-21 12:03:00 GMT 54.033691 -6.157523 13,000 10 394 -3968
2019-05-21 12:02:57 GMT 54.033691 -6.157523 13,500 0 395 -4160
2019-05-21 12:02:54 GMT 54.028061 -6.159291 13,300 10 392 -4416
2019-05-21 12:02:50 GMT 54.014511 -6.163173 13,775 9 388 -4480
2019-05-21 12:02:46 GMT 54.014511 -6.163173 13,950 9 386 -4352
2019-05-21 12:02:43 GMT 54.009933 -6.164507 14,250 9 384 -3968
2019-05-21 12:02:39 GMT 54.001831 -6.166783 14,375 9 384 -3904
2019-05-21 12:02:36 GMT 53.997299 -6.168117 14,625 9 384 -3008
2019-05-21 12:02:33 GMT 53.991611 -6.169793 14,700 10 388 -1216
2019-05-21 12:02:29 GMT 53.985397 -6.171648 14,800 10 388 -1216
2019-05-21 12:02:26 GMT 53.978996 -6.173509 15,025 10 389 -1088
2019-05-21 12:02:23 GMT 53.973221 -6.175258 15,025 10 394 -1152
2019-05-21 12:02:18 GMT 53.959900 -6.179260 15,125 10 398 -1280
2019-05-21 12:02:15 GMT 53.959900 -6.179260 15,225 9 403 -2048
2019-05-21 12:02:11 GMT 53.951523 -6.181771 15,250 10 402 -1664
2019-05-21 12:02:07 GMT 53.943382 -6.184172 15,400 9 404 -2368
2019-05-21 12:02:04 GMT 53.934082 -6.186637 15,650 7 403 -3456
2019-05-21 12:02:01 GMT 53.934082 -6.186637 15,675 356 392 -3968
2019-05-21 12:01:58 GMT 53.928627 -6.187565 15,850 4 400 -3776
2019-05-21 12:01:55 GMT 53.923920 -6.188049 16,025 1 397 -4032
2019-05-21 12:01:52 GMT 53.910645 -6.187422 16,425 353 388 -3840
2019-05-21 12:01:48 GMT 53.910645 -6.187422 16,525 355 390 -3904
2019-05-21 12:01:44 GMT 53.903137 -6.185931 16,800 351 387 -3776
2019-05-21 12:01:38 GMT 53.892471 -6.182242 17,200 346 384 -3520
2019-05-21 12:01:35 GMT 53.887344 -6.179888 17,325 345 383 -3392
2019-05-21 12:01:31 GMT 53.880489 -6.176498 17,550 344 384 -3008
2019-05-21 12:01:28 GMT 53.874252 -6.173375 17,725 344 384 -2816
2019-05-21 12:01:23 GMT 53.867176 -6.169793 18,025 344 386 -2880
2019-05-21 12:01:20 GMT 53.861801 -6.167097 18,500 344 386 -2944
2019-05-21 12:01:17 GMT 53.856564 -6.164461 18,225 344 387 -2944
2019-05-21 12:01:14 GMT 53.851395 -6.161876 18,350 344 389 -2688
2019-05-21 12:01:10 GMT 53.844269 -6.158308 18,625 344 390 -3200
2019-05-21 12:01:06 GMT 53.832264 -6.152263 18,850 344 390 -3456
2019-05-21 12:01:03 GMT 53.832264 -6.152263 19,050 344 390 -3456
2019-05-21 12:01:00 GMT 53.828121 -6.150163 19,250 344 390 -3456
2019-05-21 12:00:57 GMT 53.821743 -6.146931 19,275 344 390 -3456
2019-05-21 12:00:54 GMT 53.816666 -6.144339 19,425 344 390 -3456
2019-05-21 12:00:51 GMT 53.811630 -6.141828 19,625 344 390 -3328
2019-05-21 12:00:48 GMT 53.804657 -6.138288 19,825 344 391 -3264
2019-05-21 12:00:45 GMT 53.802052 -6.136995 20,000 344 391 -3200
2019-05-21 12:00:42 GMT 53.796837 -6.134329 21,925 344 398 -3072
2019-05-21 12:00:39 GMT 53.789574 -6.130694 20,175 344 392 -3264
2019-05-21 12:00:35 GMT 53.784256 -6.128017 20,500 344 393 -3584
2019-05-21 12:00:32 GMT 53.779984 -6.125847 20,625 344 393 -3520
2019-05-21 12:00:29 GMT 53.774506 -6.123152 21,350 344 394 -3264
2019-05-21 12:00:26 GMT 53.768051 -6.119934 21,000 344 394 -3264
2019-05-21 12:00:23 GMT 53.763412 -6.117608 21,175 344 395 -3392
2019-05-21 12:00:20 GMT 53.758804 -6.115226 21,350 344 396 -3456
2019-05-21 12:00:17 GMT 53.752567 -6.112114 21,450 344 396 -3456
2019-05-21 12:00:13 GMT 53.745209 -6.108479 21,775 344 398 -3264
2019-05-21 12:00:10 GMT 53.739807 -6.105809 21,900 344 398 -3136
2019-05-21 12:00:04 GMT 53.730175 -6.101047 22,250 344 401 -2240
2019-05-21 12:00:01 GMT 53.724869 -6.098462 22,250 344 402 -2112
2019-05-21 11:59:58 GMT 53.717834 -6.094979 22,425 344 404 -2048
2019-05-21 11:59:55 GMT 53.713276 -6.092727 22,500 344 404 -2304
2019-05-21 11:59:52 GMT 53.708679 -6.090506 22,650 344 405 -2368
2019-05-21 11:59:45 GMT 53.695492 -6.084002 22,900 344 406 -2624
2019-05-21 11:59:42 GMT 53.683685 -6.078108 23,200 344 406 -2752
2019-05-21 11:59:35 GMT 53.677105 -6.074874 23,375 344 406 -2816
2019-05-21 11:59:31 GMT 53.662628 -6.067671 23,775 344 406 -2752
2019-05-21 11:59:24 GMT 53.658142 -6.065473 23,825 344 405 -2752
2019-05-21 11:59:21 GMT 53.653595 -6.063241 23,975 344 404 -2752
2019-05-21 11:59:18 GMT 53.648117 -6.060529 24,250 344 403 -2752
2019-05-21 11:59:14 GMT 53.639816 -6.056375 24,400 344 401 -2688
2019-05-21 11:59:11 GMT 53.635849 -6.054408 24,500 344 399 -2688
2019-05-21 11:59:08 GMT 53.629715 -6.051447 24,575 344 398 -2624
2019-05-21 11:59:04 GMT 53.621704 -6.047424 24,800 344 394 -2688
2019-05-21 11:58:58 GMT 53.610954 -6.042157 25,250 344 394 -2752
2019-05-21 11:58:54 GMT 53.604343 -6.038765 25,350 344 393 -2752
2019-05-21 11:58:51 GMT 53.600601 -6.036909 27,575 344 395 -2688
2019-05-21 11:58:48 GMT 53.593460 -6.033299 25,550 344 392 -2752
2019-05-21 11:58:44 GMT 53.588516 -6.030767 25,675 344 392 -2752
2019-05-21 11:58:41 GMT 53.582520 -6.027727 25,800 343 393 -2752
2019-05-21 11:58:38 GMT 53.571075 -6.021920 26,300 344 393 -2816
2019-05-21 11:58:35 GMT 53.571075 -6.021920 26,250 344 392 -2816
2019-05-21 11:58:31 GMT 53.565239 -6.018973 26,350 344 393 -2816
2019-05-21 11:58:28 GMT 53.559402 -6.016035 26,350 344 393 -2880
2019-05-21 11:58:25 GMT 53.549599 -6.011218 26,650 344 393 -2944
2019-05-21 11:58:19 GMT 53.543312 -6.008067 27,100 344 392 -2944
2019-05-21 11:58:16 GMT 53.534042 -6.003479 27,100 344 391 -2560
2019-05-21 11:58:13 GMT 53.528824 -6.000889 27,175 344 393 -2048
2019-05-21 11:58:10 GMT 53.528824 -6.000889 27,850 344 393 -2048
2019-05-21 11:58:07 GMT 53.522270 -5.997727 27,325 344 394 -2240
2019-05-21 11:58:04 GMT 53.513332 -5.993284 27,700 344 395 -2688
2019-05-21 11:57:58 GMT 53.506622 -5.989982 27,925 344 395 -2688
2019-05-21 11:57:55 GMT 53.502857 -5.988114 27,900 344 395 -2752
2019-05-21 11:57:52 GMT 53.496017 -5.984802 28,025 344 395 -2752
2019-05-21 11:57:49 GMT 53.491638 -5.982621 28,175 344 394 -2816
2019-05-21 11:57:46 GMT 53.480896 -5.977426 28,975 344 387 -2752
2019-05-21 11:57:40 GMT 53.474121 -5.974130 28,925 344 390 -2816
2019-05-21 11:57:37 GMT 53.470737 -5.972443 28,800 344 389 -2816
2019-05-21 11:57:34 GMT 53.465572 -5.969938 29,025 344 388 -2752
2019-05-21 11:57:31 GMT 53.458679 -5.966546 29,075 344 386 -2688
2019-05-21 11:57:28 GMT 53.453430 -5.964007 29,225 344 384 -2624
2019-05-21 11:57:24 GMT 53.448349 -5.961496 29,350 344 383 -2688
2019-05-21 11:57:21 GMT 53.442398 -5.958592 29,600 344 382 -2688
2019-05-21 11:57:18 GMT 53.438759 -5.956852 29,675 344 364 -960
2019-05-21 11:57:15 GMT 53.434521 -5.954751 29,750 344 381 -2688
2019-05-21 11:57:12 GMT 53.428528 -5.951843 29,850 344 381 -2688
2019-05-21 11:57:09 GMT 53.423534 -5.949420 30,400 344 378 -2560
2019-05-21 11:57:06 GMT 53.417221 -5.946350 30,200 344 379 -2624
2019-05-21 11:57:03 GMT 53.412735 -5.944169 30,300 344 378 -2560
2019-05-21 11:57:00 GMT 53.407608 -5.941642 30,425 344 378 -2560
2019-05-21 11:56:57 GMT 53.403259 -5.939523 30,475 344 378 -2560
2019-05-21 11:56:54 GMT 53.392998 -5.934394 30,700 344 377 -2496
2019-05-21 11:56:48 GMT 53.388340 -5.932132 30,900 344 375 -2496
2019-05-21 11:56:45 GMT 53.383392 -5.929714 31,050 344 374 -2624
2019-05-21 11:56:42 GMT 53.378193 -5.927124 31,200 344 371 -2496
2019-05-21 11:56:39 GMT 53.373074 -5.924620 31,275 344 372 -2624
2019-05-21 11:56:36 GMT 53.368378 -5.922259 31,500 344 370 -2368
2019-05-21 11:56:33 GMT 53.362736 -5.919450 31,525 344 367 -2112
2019-05-21 11:56:30 GMT 53.359406 -5.917786 31,600 344 365 -1856
2019-05-21 11:56:27 GMT 53.353706 -5.914926 31,750 344 357 -1216
2019-05-21 11:56:24 GMT 53.349152 -5.912685 31,775 344 358 -1344
2019-05-21 11:56:21 GMT 53.343933 -5.910174 31,825 344 357 -1216
2019-05-21 11:56:18 GMT 53.339813 -5.908133 32,025 344 357 -1024
2019-05-21 11:56:15 GMT 53.333408 -5.904990 31,950 344 359 -1024
2019-05-21 11:56:12 GMT 53.330055 -5.903374 31,975 344 360 -960
2019-05-21 11:56:09 GMT 53.325073 -5.900914 32,225 344 361 -1024
2019-05-21 11:56:06 GMT 53.320793 -5.898850 32,150 344 362 -1024
2019-05-21 11:56:03 GMT 53.314957 -5.896048 32,125 344 362 -1024
2019-05-21 11:56:00 GMT 53.310879 -5.894003 32,150 344 363 -960
2019-05-21 11:55:56 GMT 53.304127 -5.890691 32,325 344 366 -1024
2019-05-21 11:55:53 GMT 53.298447 -5.887945 32,275 344 365 -960
2019-05-21 11:55:50 GMT 53.289413 -5.883493 32,375 344 367 -960
2019-05-21 11:55:44 GMT 53.284435 -5.881078 32,450 344 369 -960
2019-05-21 11:55:38 GMT 53.273895 -5.875959 32,550 344 371 -1024
2019-05-21 11:55:35 GMT 53.270599 -5.874390 32,600 344 371 -1024
2019-05-21 11:55:32 GMT 53.264744 -5.871546 32,650 344 372 -1024
2019-05-21 11:55:29 GMT 53.259949 -5.869203 32,825 344 375 -1024
2019-05-21 11:55:25 GMT 53.252747 -5.865679 32,750 344 376 -1024
2019-05-21 11:55:22 GMT 53.247574 -5.863168 32,825 344 375 -1024
2019-05-21 11:55:16 GMT 53.237511 -5.858298 32,925 344 375 -1024
2019-05-21 11:55:13 GMT 53.231693 -5.855390 33,000 344 376 -1024
2019-05-21 11:55:10 GMT 53.228073 -5.853673 33,050 344 378 -960
2019-05-21 11:55:07 GMT 53.222988 -5.851189 33,225 344 379 -960
2019-05-21 11:55:04 GMT 53.217960 -5.848766 33,100 344 377 -1024
2019-05-21 11:55:01 GMT 53.213013 -5.846375 33,175 344 378 -960
2019-05-21 11:54:57 GMT 53.206696 -5.843353 33,275 344 378 -1024
2019-05-21 11:54:54 GMT 53.201431 -5.840803 33,300 344 379 -960
2019-05-21 11:54:51 GMT 53.196266 -5.838345 33,350 344 379 -1024
2019-05-21 11:54:47 GMT 53.189438 -5.835074 33,450 344 382 -1024
2019-05-21 11:54:43 GMT 53.182343 -5.831700 33,475 344 382 -1024
2019-05-21 11:54:39 GMT 53.175831 -5.828570 33,950 344 392 0
2019-05-21 11:54:36 GMT 53.170853 -5.826128 33,575 344 383 -1024
2019-05-21 11:54:33 GMT 53.161072 -5.821461 33,725 344 386 -1024
2019-05-21 11:54:30 GMT 53.161072 -5.821461 33,675 344 385 -1024
2019-05-21 11:54:27 GMT 53.155518 -5.818752 33,850 344 387 -1024
2019-05-21 11:54:23 GMT 53.149620 -5.815968 33,775 344 387 -1024
2019-05-21 11:54:20 GMT 53.143291 -5.812899 33,825 344 387 -1024
2019-05-21 11:54:16 GMT 53.137424 -5.810071 33,950 344 389 -512
2019-05-21 11:54:13 GMT 53.130211 -5.806598 33,950 344 389 -576
2019-05-21 11:54:10 GMT 53.126579 -5.804901 33,975 344 392 64
2019-05-21 11:54:07 GMT 53.115921 -5.799761 33,975 344 392 64
2019-05-21 11:54:04 GMT 53.115921 -5.799761 33,975 344 392 0
2019-05-21 11:54:01 GMT 53.109512 -5.796701 34,000 344 392 64
2019-05-21 11:53:57 GMT 53.103928 -5.794033 33,975 344 391 0
2019-05-21 11:53:54 GMT 53.099483 -5.791895 34,000 344 392 0
2019-05-21 11:53:51 GMT 53.094086 -5.789324 34,000 344 392 0
2019-05-21 11:53:48 GMT 53.089245 -5.786970 34,000 344 392 64
2019-05-21 11:53:45 GMT 53.083332 -5.784145 34,000 344 392 64
2019-05-21 11:53:42 GMT 53.072983 -5.779190 34,000 344 392 0
2019-05-21 11:53:39 GMT 53.072983 -5.779190 33,975 344 392 0
2019-05-21 11:53:34 GMT 53.058197 -5.772095 34,000 344 391 0
2019-05-21 11:53:31 GMT 53.056458 -5.771255 33,975 344 391 0
2019-05-21 11:53:28 GMT 53.052048 -5.769156 34,000 344 391 0
2019-05-21 11:53:24 GMT 53.046936 -5.766754 33,975 344 391 -64
2019-05-21 11:53:21 GMT 53.041901 -5.764313 33,975 344 391 0
2019-05-21 11:53:18 GMT 53.035812 -5.761414 33,975 344 391 0
2019-05-21 11:53:15 GMT 53.031563 -5.759426 33,975 344 391 0
2019-05-21 11:53:12 GMT 53.026062 -5.756760 33,975 344 391 0
2019-05-21 11:53:09 GMT 53.021576 -5.754623 33,975 344 391 0
2019-05-21 11:53:06 GMT 53.008476 -5.748439 33,975 344 391 0
2019-05-21 11:53:02 GMT 53.008476 -5.748439 33,975 344 391 0
2019-05-21 11:52:59 GMT 53.003262 -5.745928 33,975 344 391 0
2019-05-21 11:52:56 GMT 52.997955 -5.743484 33,975 344 391 0
2019-05-21 11:52:53 GMT 52.991997 -5.740592 34,000 344 391 0
2019-05-21 11:52:50 GMT 52.987804 -5.738630 34,000 344 391 0
2019-05-21 11:52:47 GMT 52.982529 -5.736160 34,000 344 391 0
2019-05-21 11:52:44 GMT 52.976303 -5.733185 34,000 344 391 0
2019-05-21 11:52:40 GMT 52.970215 -5.730286 34,000 344 391 0
2019-05-21 11:52:37 GMT 52.964859 -5.727692 33,975 344 391 0
2019-05-21 11:52:34 GMT 52.954521 -5.722778 33,975 344 391 0
2019-05-21 11:52:31 GMT 52.954521 -5.722778 33,975 344 391 0
2019-05-21 11:52:28 GMT 52.949493 -5.720424 34,000 344 391 0
2019-05-21 11:52:24 GMT 52.942230 -5.716893 34,000 344 391 0
2019-05-21 11:52:21 GMT 52.936249 -5.714035 34,000 344 391 -64
2019-05-21 11:52:18 GMT 52.926079 -5.709202 34,000 344 391 0
2019-05-21 11:52:12 GMT 52.922260 -5.707319 34,000 344 391 -64
2019-05-21 11:52:09 GMT 52.914734 -5.703659 34,000 344 391 0
2019-05-21 11:52:05 GMT 52.908325 -5.700607 34,000 344 391 0
2019-05-21 11:52:02 GMT 52.905640 -5.699315 34,000 344 391 0
2019-05-21 11:51:58 GMT 52.892212 -5.692825 34,000 344 391 0
2019-05-21 11:51:55 GMT 52.892212 -5.692825 34,000 344 391 0
2019-05-21 11:51:52 GMT 52.886742 -5.690212 34,000 344 391 0
2019-05-21 11:51:48 GMT 52.880318 -5.687151 34,000 344 391 0
2019-05-21 11:51:45 GMT 52.875149 -5.684640 34,000 344 391 0
2019-05-21 11:51:41 GMT 52.863136 -5.678911 34,000 344 391 0
2019-05-21 11:51:38 GMT 52.863136 -5.678911 34,000 344 392 -64
2019-05-21 11:51:35 GMT 52.857273 -5.676008 34,000 344 392 0
2019-05-21 11:51:32 GMT 52.852112 -5.673599 34,000 344 392 -64
2019-05-21 11:51:29 GMT 52.847626 -5.671463 34,025 344 392 -64
2019-05-21 11:51:26 GMT 52.841721 -5.668564 34,000 344 392 -64
2019-05-21 11:51:23 GMT 52.836418 -5.666042 34,000 344 392 0
2019-05-21 11:51:19 GMT 52.824223 -5.660235 34,025 344 392 0
2019-05-21 11:51:16 GMT 52.824223 -5.660235 34,000 344 392 0
2019-05-21 11:51:13 GMT 52.813980 -5.655369 34,000 344 392 0
2019-05-21 11:51:10 GMT 52.813980 -5.655369 34,000 344 392 0
2019-05-21 11:51:07 GMT 52.808853 -5.652924 34,000 344 392 0
2019-05-21 11:51:04 GMT 52.801529 -5.649414 34,000 344 392 0
2019-05-21 11:51:01 GMT 52.797913 -5.647659 34,000 344 392 0
2019-05-21 11:50:58 GMT 52.786743 -5.642319 34,000 344 392 0
2019-05-21 11:50:55 GMT 52.786743 -5.642319 34,000 344 392 0
2019-05-21 11:50:49 GMT 52.776085 -5.637242 34,025 344 392 0
2019-05-21 11:50:46 GMT 52.769211 -5.633926 34,000 344 392 0
2019-05-21 11:50:43 GMT 52.767567 -5.633161 34,025 344 392 0
2019-05-21 11:50:40 GMT 52.761749 -5.630341 34,025 344 392 0
2019-05-21 11:50:36 GMT 52.755295 -5.627289 34,000 344 392 0
2019-05-21 11:50:33 GMT 52.748249 -5.623901 34,000 344 392 0
2019-05-21 11:50:30 GMT 52.742893 -5.621312 34,000 344 392 0
2019-05-21 11:50:27 GMT 52.740101 -5.619899 34,000 344 392 0
2019-05-21 11:50:24 GMT 52.734188 -5.617074 34,025 344 392 0
2019-05-21 11:50:21 GMT 52.727577 -5.613857 34,000 344 392 0
2019-05-21 11:50:18 GMT 52.723846 -5.612106 34,025 344 392 0
2019-05-21 11:50:15 GMT 52.718445 -5.609512 34,025 344 392 0
2019-05-21 11:50:12 GMT 52.712540 -5.606689 34,025 345 393 0
2019-05-21 11:50:08 GMT 52.706589 -5.603867 34,025 344 393 0
2019-05-21 11:50:05 GMT 52.699310 -5.600357 34,025 345 392 0
2019-05-21 11:50:02 GMT 52.694229 -5.597992 34,025 345 392 0
2019-05-21 11:49:56 GMT 52.684380 -5.593454 34,025 345 392 64
2019-05-21 11:49:53 GMT 52.678932 -5.590942 34,000 343 392 64
2019-05-21 11:49:49 GMT 52.672646 -5.588117 34,000 345 393 64
2019-05-21 11:49:46 GMT 52.663467 -5.583954 34,000 333 389 0
2019-05-21 11:49:40 GMT 52.651886 -5.578079 34,000 343 392 64
2019-05-21 11:49:37 GMT 52.651886 -5.578079 34,000 341 391 0
2019-05-21 11:49:33 GMT 52.644482 -5.573678 34,000 339 391 0
2019-05-21 11:49:30 GMT 52.640213 -5.570831 34,000 334 389 0
2019-05-21 11:49:25 GMT 52.632980 -5.565567 34,000 335 390 0
2019-05-21 11:49:22 GMT 52.626343 -5.560303 34,000 333 389 0
2019-05-21 11:49:16 GMT 52.616970 -5.552490 34,000 333 389 64
2019-05-21 11:49:12 GMT 52.611988 -5.548331 34,000 333 389 64
2019-05-21 11:49:09 GMT 52.605652 -5.543060 34,000 333 389 64
2019-05-21 11:49:06 GMT 52.596115 -5.535069 33,975 334 389 0
2019-05-21 11:49:03 GMT 52.596115 -5.535069 33,975 334 389 0
2019-05-21 11:49:00 GMT 52.591461 -5.531224 33,975 334 389 0
2019-05-21 11:48:56 GMT 52.585686 -5.526437 33,975 334 389 0
2019-05-21 11:48:53 GMT 52.581619 -5.522995 33,975 334 389 0
2019-05-21 11:48:50 GMT 52.576050 -5.518433 33,975 334 389 0
2019-05-21 11:48:46 GMT 52.569489 -5.512939 33,975 334 389 0
2019-05-21 11:48:43 GMT 52.564590 -5.508881 34,000 334 389 0
2019-05-21 11:48:40 GMT 52.559647 -5.504761 33,975 334 389 0
2019-05-21 11:48:37 GMT 52.554729 -5.500698 33,975 334 389 0
2019-05-21 11:48:34 GMT 52.550171 -5.496902 33,975 334 389 0
2019-05-21 11:48:30 GMT 52.543697 -5.491438 33,975 334 389 0
2019-05-21 11:48:27 GMT 52.537354 -5.486221 33,975 334 389 0
2019-05-21 11:48:24 GMT 52.529919 -5.479980 33,975 334 389 0
2019-05-21 11:48:21 GMT 52.529919 -5.479980 33,975 334 389 0
2019-05-21 11:48:18 GMT 52.524937 -5.475900 33,975 334 389 0
2019-05-21 11:48:15 GMT 52.517990 -5.470047 33,975 334 389 64
2019-05-21 11:48:12 GMT 52.516323 -5.468680 33,975 334 389 0
2019-05-21 11:48:09 GMT 52.508968 -5.462559 33,975 334 389 0
2019-05-21 11:48:06 GMT 52.500366 -5.455475 34,000 334 388 0
2019-05-21 11:48:00 GMT 52.495655 -5.451573 33,975 334 388 0
2019-05-21 11:47:56 GMT 52.488907 -5.446001 33,975 334 388 0
2019-05-21 11:47:53 GMT 52.480572 -5.439096 33,975 334 388 0
2019-05-21 11:47:46 GMT 52.474335 -5.433995 33,975 334 388 0
2019-05-21 11:47:43 GMT 52.463581 -5.425127 34,000 334 388 0
2019-05-21 11:47:40 GMT 52.458710 -5.421066 34,000 334 389 -64
2019-05-21 11:47:37 GMT 52.452686 -5.416103 34,000 334 388 0
2019-05-21 11:47:34 GMT 52.452686 -5.416103 34,000 334 389 -64
2019-05-21 11:47:29 GMT 52.440125 -5.405731 34,000 334 389 -64
2019-05-21 11:47:25 GMT 52.438339 -5.404282 34,000 334 389 -64
2019-05-21 11:47:22 GMT 52.435135 -5.401611 34,000 334 389 -64
2019-05-21 11:47:18 GMT 52.422428 -5.391070 34,000 334 389 -64
2019-05-21 11:47:14 GMT 52.422428 -5.391070 34,000 334 389 0
2019-05-21 11:47:11 GMT 52.417633 -5.387068 34,000 334 389 0
2019-05-21 11:47:08 GMT 52.412888 -5.383148 34,000 333 389 0
2019-05-21 11:47:04 GMT 52.406342 -5.377655 34,000 333 389 0
2019-05-21 11:47:01 GMT 52.401482 -5.373570 34,000 333 389 0
2019-05-21 11:46:58 GMT 52.396687 -5.369568 34,000 333 389 0
2019-05-21 11:46:55 GMT 52.391376 -5.365173 34,000 333 389 -64
2019-05-21 11:46:52 GMT 52.387299 -5.361786 34,000 333 389 -64
2019-05-21 11:46:49 GMT 52.380890 -5.356445 34,000 333 389 -64
2019-05-21 11:46:46 GMT 52.378391 -5.354422 34,000 333 389 0
2019-05-21 11:46:43 GMT 52.372559 -5.349503 34,000 333 389 0
2019-05-21 11:46:40 GMT 52.368393 -5.346069 34,000 333 389 0
2019-05-21 11:46:36 GMT 52.360607 -5.339591 34,000 333 389 0
2019-05-21 11:46:32 GMT 52.355713 -5.335541 34,000 334 390 0
2019-05-21 11:46:29 GMT 52.349854 -5.330645 34,000 334 390 0
2019-05-21 11:46:26 GMT 52.343857 -5.325623 34,000 334 390 0
2019-05-21 11:46:23 GMT 52.340790 -5.323105 34,025 334 390 0
2019-05-21 11:46:20 GMT 52.335663 -5.318832 34,025 334 390 0
2019-05-21 11:46:16 GMT 52.329975 -5.314087 34,025 334 390 0
2019-05-21 11:46:13 GMT 52.323364 -5.308672 34,025 334 390 0
2019-05-21 11:46:10 GMT 52.318451 -5.304565 34,025 334 390 0
2019-05-21 11:46:04 GMT 52.309212 -5.296980 34,025 334 390 0
2019-05-21 11:46:01 GMT 52.299179 -5.288696 34,025 334 390 0
2019-05-21 11:45:58 GMT 52.299179 -5.288696 34,025 334 390 0
2019-05-21 11:45:55 GMT 52.290619 -5.281677 34,025 334 391 0
2019-05-21 11:45:52 GMT 52.284805 -5.276947 34,000 334 391 0
2019-05-21 11:45:49 GMT 52.284805 -5.276947 34,025 334 391 0
2019-05-21 11:45:42 GMT 52.274643 -5.268631 34,000 334 391 0
2019-05-21 11:45:39 GMT 52.269226 -5.264178 34,000 334 391 0
2019-05-21 11:45:36 GMT 52.265873 -5.261431 34,000 334 391 0
2019-05-21 11:45:33 GMT 52.260193 -5.256801 34,025 334 392 0
2019-05-21 11:45:30 GMT 52.254234 -5.251936 34,025 334 391 0
2019-05-21 11:45:26 GMT 52.247360 -5.246353 34,000 334 392 0
2019-05-21 11:45:23 GMT 52.243927 -5.243607 34,000 334 392 0
2019-05-21 11:45:20 GMT 52.239075 -5.239639 34,025 334 392 0
2019-05-21 11:45:17 GMT 52.233845 -5.235378 34,025 334 392 0
2019-05-21 11:45:13 GMT 52.227905 -5.230560 34,000 334 392 0
2019-05-21 11:45:10 GMT 52.220810 -5.224762 34,000 334 392 0
2019-05-21 11:45:07 GMT 52.217644 -5.222194 34,025 334 392 0
2019-05-21 11:45:03 GMT 52.211105 -5.216827 34,000 334 392 0
2019-05-21 11:45:00 GMT 52.206333 -5.212934 34,025 334 392 0
2019-05-21 11:44:57 GMT 52.196465 -5.204851 34,025 334 392 0
2019-05-21 11:44:54 GMT 52.196465 -5.204851 34,025 334 391 0
2019-05-21 11:44:51 GMT 52.191696 -5.200958 34,025 334 392 0
2019-05-21 11:44:48 GMT 52.180450 -5.191746 34,025 334 391 0
2019-05-21 11:44:44 GMT 52.180450 -5.191746 34,025 334 392 0
2019-05-21 11:44:41 GMT 52.175674 -5.187836 34,025 334 392 0
2019-05-21 11:44:38 GMT 52.170582 -5.183664 34,025 334 392 0
2019-05-21 11:44:35 GMT 52.166206 -5.180132 34,025 334 392 0
2019-05-21 11:44:31 GMT 52.160660 -5.175476 34,025 334 392 0
2019-05-21 11:44:25 GMT 52.143494 -5.161438 34,025 334 393 0
2019-05-21 11:44:21 GMT 52.141953 -5.160200 34,025 334 393 0
2019-05-21 11:44:18 GMT 52.138962 -5.157776 34,025 334 392 64
2019-05-21 11:44:14 GMT 52.132645 -5.152588 34,025 334 392 64
2019-05-21 11:44:11 GMT 52.122620 -5.144424 34,000 334 392 0
2019-05-21 11:44:08 GMT 52.115982 -5.139008 34,000 334 392 0
2019-05-21 11:44:04 GMT 52.115982 -5.139008 34,000 334 393 0
2019-05-21 11:44:01 GMT 52.111832 -5.135638 34,000 334 392 0
2019-05-21 11:43:58 GMT 52.106480 -5.131321 34,000 334 392 0
2019-05-21 11:43:53 GMT 52.098190 -5.124651 34,000 334 392 0
2019-05-21 11:43:50 GMT 52.093163 -5.120649 34,000 333 392 0
2019-05-21 11:43:46 GMT 52.082130 -5.111782 34,000 334 392 0
2019-05-21 11:43:43 GMT 52.082130 -5.111782 34,000 332 391 0
2019-05-21 11:43:40 GMT 52.077103 -5.107544 34,000 330 392 0
2019-05-21 11:43:36 GMT 52.069283 -5.100795 34,000 331 392 0
2019-05-21 11:43:32 GMT 52.065445 -5.097275 34,000 331 392 0
2019-05-21 11:43:29 GMT 52.060158 -5.092399 34,025 329 391 0
2019-05-21 11:43:26 GMT 52.055504 -5.087926 34,000 329 392 0
2019-05-21 11:43:22 GMT 52.048985 -5.081491 34,025 327 391 0
2019-05-21 11:43:18 GMT 52.042423 -5.074663 34,025 327 391 0
2019-05-21 11:43:14 GMT 52.036194 -5.067978 34,025 326 391 64
2019-05-21 11:43:11 GMT 52.033253 -5.064776 34,000 326 390 64
2019-05-21 11:43:08 GMT 52.028458 -5.059357 34,000 325 391 128
2019-05-21 11:43:04 GMT 52.022415 -5.052414 34,000 324 391 64
2019-05-21 11:43:01 GMT 52.016678 -5.045471 34,000 323 391 64
2019-05-21 11:42:57 GMT 52.008114 -5.034799 33,975 322 391 64
2019-05-21 11:42:51 GMT 52.003227 -5.028364 33,975 321 391 0
2019-05-21 11:42:48 GMT 51.999664 -5.023575 33,975 308 392 0
2019-05-21 11:42:43 GMT 51.991493 -5.012277 33,975 319 391 0
2019-05-21 11:42:40 GMT 51.986794 -5.005450 33,975 318 390 0
2019-05-21 11:42:34 GMT 51.980415 -4.995954 34,000 317 391 0
2019-05-21 11:42:30 GMT 51.974922 -4.987479 33,975 315 391 0
2019-05-21 11:42:27 GMT 51.971512 -4.982071 34,000 315 391 0
2019-05-21 11:42:24 GMT 51.968033 -4.976336 33,975 315 391 0
2019-05-21 11:42:18 GMT 51.959698 -4.962211 33,975 312 391 -64
2019-05-21 11:42:15 GMT 51.956627 -4.956796 33,975 312 391 -64
2019-05-21 11:42:12 GMT 51.953369 -4.950910 34,000 311 391 -64
2019-05-21 11:42:09 GMT 51.948349 -4.941483 34,000 311 391 -64
2019-05-21 11:42:06 GMT 51.945499 -4.936000 34,000 310 391 -64
2019-05-21 11:42:03 GMT 51.941940 -4.928818 34,000 309 392 -64
2019-05-21 11:42:00 GMT 51.937355 -4.919521 34,000 308 392 -64
2019-05-21 11:41:57 GMT 51.932186 -4.908613 34,000 308 392 0
2019-05-21 11:41:51 GMT 51.928883 -4.901629 34,000 308 393 -64
2019-05-21 11:41:47 GMT 51.924274 -4.891820 34,000 308 393 0
2019-05-21 11:41:43 GMT 51.919525 -4.881853 34,000 308 392 -64
2019-05-21 11:41:39 GMT 51.914265 -4.870632 34,000 308 393 -64
2019-05-21 11:41:36 GMT 51.908798 -4.859085 34,025 308 393 -64
2019-05-21 11:41:33 GMT 51.908798 -4.859085 34,025 308 393 -64
2019-05-21 11:41:29 GMT 51.901134 -4.842930 34,025 308 393 0
2019-05-21 11:41:26 GMT 51.901134 -4.842930 34,025 308 393 0
2019-05-21 11:41:23 GMT 51.898624 -4.837594 34,025 308 393 0
2019-05-21 11:41:20 GMT 51.894665 -4.829197 34,025 308 393 0
2019-05-21 11:41:17 GMT 51.887878 -4.814907 34,025 308 393 0
2019-05-21 11:41:14 GMT 51.887878 -4.814907 34,025 308 393 -64
2019-05-21 11:41:10 GMT 51.883163 -4.804960 34,025 308 393 0
2019-05-21 11:41:07 GMT 51.875885 -4.789594 34,025 308 393 0
2019-05-21 11:41:00 GMT 51.873486 -4.784546 34,025 308 393 0
2019-05-21 11:40:57 GMT 51.869434 -4.776001 34,025 308 393 0
2019-05-21 11:40:53 GMT 51.859406 -4.755002 34,025 308 393 0
2019-05-21 11:40:48 GMT 51.859406 -4.755002 34,025 308 393 -64
2019-05-21 11:40:45 GMT 51.856201 -4.748246 34,025 308 393 -64
2019-05-21 11:40:42 GMT 51.851807 -4.738967 34,025 308 393 0
2019-05-21 11:40:39 GMT 51.846130 -4.727090 34,025 308 393 0
2019-05-21 11:40:36 GMT 51.846130 -4.727090 34,025 308 393 0
2019-05-21 11:40:33 GMT 51.842342 -4.719086 34,050 308 393 0
2019-05-21 11:40:30 GMT 51.839687 -4.713516 34,050 308 393 0
2019-05-21 11:40:27 GMT 51.836975 -4.707790 34,050 308 393 0
2019-05-21 11:40:24 GMT 51.833130 -4.699699 34,025 308 393 0
2019-05-21 11:40:21 GMT 51.829632 -4.692383 34,050 308 393 0
2019-05-21 11:40:18 GMT 51.825302 -4.683145 34,050 308 393 0
2019-05-21 11:40:14 GMT 51.821903 -4.676056 34,050 308 393 0
2019-05-21 11:40:11 GMT 51.814644 -4.660721 34,025 308 393 0
2019-05-21 11:40:07 GMT 51.814644 -4.660721 34,050 308 393 0
2019-05-21 11:40:04 GMT 51.811157 -4.653378 34,050 308 393 0
2019-05-21 11:40:01 GMT 51.807472 -4.645538 34,050 308 393 0
2019-05-21 11:39:58 GMT 51.801514 -4.633026 34,050 308 393 0
2019-05-21 11:39:52 GMT 51.797607 -4.624725 34,050 308 393 0
2019-05-21 11:39:49 GMT 51.794861 -4.618934 34,050 308 393 0
2019-05-21 11:39:46 GMT 51.790157 -4.608994 34,050 308 393 0
2019-05-21 11:39:43 GMT 51.787903 -4.604236 34,050 308 393 0
2019-05-21 11:39:40 GMT 51.784199 -4.596481 34,050 308 394 -64
2019-05-21 11:39:37 GMT 51.779800 -4.587312 34,050 308 393 0
2019-05-21 11:39:33 GMT 51.776825 -4.581002 34,050 308 394 0
2019-05-21 11:39:30 GMT 51.773575 -4.574321 34,050 308 394 0
2019-05-21 11:39:27 GMT 51.770325 -4.567490 34,050 308 394 0
2019-05-21 11:39:24 GMT 51.763596 -4.553462 34,050 308 394 0
2019-05-21 11:39:21 GMT 51.763596 -4.553462 34,050 308 394 0
2019-05-21 11:39:18 GMT 51.759842 -4.545519 34,050 308 394 0
2019-05-21 11:39:15 GMT 51.756821 -4.539284 34,050 308 394 0
2019-05-21 11:39:12 GMT 51.753986 -4.533386 34,050 308 393 0
2019-05-21 11:39:09 GMT 51.750679 -4.526443 34,050 308 394 0
2019-05-21 11:39:05 GMT 51.746025 -4.516678 34,050 308 393 0
2019-05-21 11:39:02 GMT 51.742493 -4.509368 34,050 308 393 0
2019-05-21 11:38:59 GMT 51.738903 -4.501877 34,050 308 393 0
2019-05-21 11:38:56 GMT 51.736038 -4.495932 34,050 308 394 0
2019-05-21 11:38:53 GMT 51.731964 -4.487534 34,050 308 394 0
2019-05-21 11:38:50 GMT 51.728428 -4.480057 34,050 308 394 -64
2019-05-21 11:38:47 GMT 51.725075 -4.473114 34,050 308 394 -64
2019-05-21 11:38:44 GMT 51.722980 -4.468689 34,050 308 394 -64
2019-05-21 11:38:41 GMT 51.718559 -4.459457 34,050 308 393 -64
2019-05-21 11:38:35 GMT 51.711342 -4.444427 34,050 308 393 64
2019-05-21 11:38:32 GMT 51.708481 -4.438477 34,050 308 393 64
2019-05-21 11:38:29 GMT 51.706223 -4.433746 34,050 308 393 64
2019-05-21 11:38:26 GMT 51.698593 -4.417914 34,025 308 393 0
2019-05-21 11:38:20 GMT 51.694771 -4.409943 34,025 308 393 0
2019-05-21 11:38:13 GMT 51.688534 -4.397049 34,025 308 393 0
2019-05-21 11:38:10 GMT 51.684402 -4.388370 34,025 308 393 64
2019-05-21 11:38:07 GMT 51.680992 -4.381332 34,025 308 393 0
2019-05-21 11:38:03 GMT 51.676712 -4.372484 34,025 308 392 0
2019-05-21 11:38:00 GMT 51.672237 -4.363098 34,025 308 392 0
2019-05-21 11:37:57 GMT 51.669937 -4.358380 34,025 308 392 0
2019-05-21 11:37:53 GMT 51.664558 -4.347229 34,025 308 392 64
2019-05-21 11:37:49 GMT 51.661285 -4.340490 34,025 308 392 64
2019-05-21 11:37:46 GMT 51.656693 -4.330902 34,025 308 391 64
2019-05-21 11:37:43 GMT 51.654419 -4.326238 33,950 308 388 0
2019-05-21 11:37:40 GMT 51.651104 -4.319458 34,000 308 391 64
2019-05-21 11:37:37 GMT 51.647007 -4.310989 34,000 308 391 64
2019-05-21 11:37:34 GMT 51.644302 -4.305379 34,000 308 391 0
2019-05-21 11:37:30 GMT 51.640045 -4.296694 34,000 308 391 0
2019-05-21 11:37:27 GMT 51.636581 -4.289474 34,000 308 391 0
2019-05-21 11:37:23 GMT 51.632019 -4.280090 34,000 308 391 0
2019-05-21 11:37:20 GMT 51.629379 -4.274721 34,000 308 391 0
2019-05-21 11:37:17 GMT 51.624477 -4.264450 33,950 309 388 0
2019-05-21 11:37:13 GMT 51.620544 -4.256386 34,000 308 390 0
2019-05-21 11:37:10 GMT 51.614281 -4.243469 34,000 308 390 0
2019-05-21 11:37:07 GMT 51.614281 -4.243469 34,000 308 390 0
2019-05-21 11:37:04 GMT 51.610279 -4.235229 34,000 309 389 64
2019-05-21 11:37:01 GMT 51.608044 -4.230652 34,000 309 389 128
2019-05-21 11:36:58 GMT 51.601135 -4.216449 33,975 309 388 320
2019-05-21 11:36:55 GMT 51.596313 -4.206619 33,975 309 388 256
2019-05-21 11:36:51 GMT 51.596313 -4.206619 33,950 309 388 320
2019-05-21 11:36:48 GMT 51.593491 -4.200786 33,975 309 402 0
2019-05-21 11:36:45 GMT 51.586491 -4.186401 33,950 309 388 0
2019-05-21 11:36:42 GMT 51.586491 -4.186401 33,950 308 388 0
2019-05-21 11:36:39 GMT 51.579414 -4.171829 33,950 308 388 0
2019-05-21 11:36:36 GMT 51.579414 -4.171829 33,950 308 389 0
2019-05-21 11:36:33 GMT 51.576668 -4.166183 33,950 308 389 0
2019-05-21 11:36:30 GMT 51.572205 -4.156989 33,950 308 388 0
2019-05-21 11:36:27 GMT 51.569592 -4.151688 33,950 308 388 0
2019-05-21 11:36:23 GMT 51.566193 -4.144592 33,950 308 388 0
2019-05-21 11:36:20 GMT 51.561722 -4.135462 33,950 308 388 0
2019-05-21 11:36:17 GMT 51.558929 -4.129746 33,950 308 388 0
2019-05-21 11:36:14 GMT 51.555672 -4.123077 33,950 308 388 0
2019-05-21 11:36:11 GMT 51.548641 -4.108582 33,950 308 388 0
2019-05-21 11:36:05 GMT 51.545757 -4.102707 33,950 308 388 0
2019-05-21 11:36:02 GMT 51.541718 -4.094411 33,950 308 388 0
2019-05-21 11:35:57 GMT 51.533466 -4.077530 33,950 309 388 0
2019-05-21 11:35:54 GMT 51.532349 -4.075241 33,950 309 388 0
2019-05-21 11:35:51 GMT 51.530548 -4.071474 34,000 309 396 -64
2019-05-21 11:35:47 GMT 51.525600 -4.061432 33,950 309 389 0
2019-05-21 11:35:44 GMT 51.521439 -4.052916 33,950 309 389 0
2019-05-21 11:35:41 GMT 51.519176 -4.048233 33,950 309 389 0
2019-05-21 11:35:38 GMT 51.516289 -4.042358 33,950 309 389 0
2019-05-21 11:35:35 GMT 51.512333 -4.034195 33,950 308 390 -64
2019-05-21 11:35:32 GMT 51.509033 -4.027454 33,950 308 390 -64
2019-05-21 11:35:29 GMT 51.506058 -4.021293 33,975 309 391 -64
2019-05-21 11:35:26 GMT 51.502232 -4.013443 33,975 309 391 -64
2019-05-21 11:35:23 GMT 51.500137 -4.009094 33,975 309 391 -64
2019-05-21 11:35:20 GMT 51.492737 -3.993976 33,975 309 393 0
2019-05-21 11:35:17 GMT 51.492737 -3.993976 33,975 309 392 0
2019-05-21 11:35:14 GMT 51.489395 -3.987072 33,975 308 391 0
2019-05-21 11:35:11 GMT 51.485657 -3.979492 33,975 308 391 0
2019-05-21 11:35:07 GMT 51.482391 -3.972745 33,975 308 391 0
2019-05-21 11:35:04 GMT 51.477814 -3.963392 33,975 309 395 0
2019-05-21 11:35:01 GMT 51.474625 -3.956833 33,975 309 392 0
2019-05-21 11:34:58 GMT 51.470947 -3.949356 33,975 309 393 0
2019-05-21 11:34:55 GMT 51.466965 -3.941197 34,000 309 393 -64
2019-05-21 11:34:52 GMT 51.464664 -3.936539 34,000 309 393 -64
2019-05-21 11:34:49 GMT 51.457588 -3.922043 34,000 309 395 0
2019-05-21 11:34:46 GMT 51.454605 -3.915958 34,000 309 394 0
2019-05-21 11:34:43 GMT 51.454605 -3.915958 34,000 309 399 0
2019-05-21 11:34:39 GMT 51.450047 -3.906708 34,000 309 395 0
2019-05-21 11:34:36 GMT 51.445763 -3.897934 34,000 309 395 0
2019-05-21 11:34:33 GMT 51.440037 -3.886261 34,000 309 396 -64
2019-05-21 11:34:27 GMT 51.436707 -3.879436 34,000 309 396 -64
2019-05-21 11:34:24 GMT 51.432037 -3.870008 34,000 309 396 -64
2019-05-21 11:34:21 GMT 51.429199 -3.864218 34,000 309 397 -64
2019-05-21 11:34:18 GMT 51.426537 -3.858795 34,000 309 397 -64
2019-05-21 11:34:15 GMT 51.423046 -3.851700 34,000 309 398 0
2019-05-21 11:34:12 GMT 51.419041 -3.843613 34,000 309 398 0
2019-05-21 11:34:08 GMT 51.415009 -3.835416 34,025 309 401 0
2019-05-21 11:34:05 GMT 51.412308 -3.829849 34,000 309 398 0
2019-05-21 11:34:02 GMT 51.404377 -3.813782 34,000 309 400 -64
2019-05-21 11:33:59 GMT 51.404377 -3.813782 34,000 309 400 -64
2019-05-21 11:33:56 GMT 51.401398 -3.807755 34,025 309 400 -64
2019-05-21 11:33:53 GMT 51.396881 -3.798597 34,025 309 400 -64
2019-05-21 11:33:50 GMT 51.394833 -3.794479 34,025 309 401 0
2019-05-21 11:33:47 GMT 51.390972 -3.786621 34,025 309 401 -64
2019-05-21 11:33:44 GMT 51.387527 -3.779602 34,025 311 407 0
2019-05-21 11:33:41 GMT 51.384018 -3.772542 34,025 309 402 0
2019-05-21 11:33:38 GMT 51.381054 -3.766632 34,025 309 402 0
2019-05-21 11:33:35 GMT 51.373718 -3.751757 34,025 309 404 0
2019-05-21 11:33:32 GMT 51.373718 -3.751757 34,025 309 403 0
2019-05-21 11:33:29 GMT 51.369598 -3.743369 34,025 309 403 0
2019-05-21 11:33:25 GMT 51.361954 -3.727928 34,025 309 404 -64
2019-05-21 11:33:22 GMT 51.357788 -3.719466 34,050 309 405 -64
2019-05-21 11:33:19 GMT 51.357788 -3.719466 34,025 308 406 -64
2019-05-21 11:33:15 GMT 51.354584 -3.712859 34,025 308 406 -64
2019-05-21 11:33:12 GMT 51.348747 -3.700943 34,025 308 406 -64
2019-05-21 11:33:09 GMT 51.347443 -3.698236 34,050 323 409 0
2019-05-21 11:33:06 GMT 51.343998 -3.691330 34,050 309 406 -64
2019-05-21 11:33:03 GMT 51.340740 -3.684692 34,050 310 407 0
2019-05-21 11:33:00 GMT 51.336639 -3.676708 34,050 310 406 0
2019-05-21 11:32:56 GMT 51.331013 -3.666077 34,050 311 406 0
2019-05-21 11:32:52 GMT 51.327530 -3.659561 34,050 312 407 64
2019-05-21 11:32:49 GMT 51.318832 -3.644195 34,050 313 407 0
2019-05-21 11:32:46 GMT 51.318832 -3.644195 34,050 314 407 0
2019-05-21 11:32:43 GMT 51.316269 -3.639815 34,050 314 407 0
2019-05-21 11:32:40 GMT 51.312202 -3.632889 34,025 314 408 0
2019-05-21 11:32:37 GMT 51.308075 -3.626156 34,025 315 408 0
2019-05-21 11:32:34 GMT 51.302429 -3.617096 34,025 319 408 0
2019-05-21 11:32:31 GMT 51.298378 -3.610764 34,025 317 408 0
2019-05-21 11:32:28 GMT 51.296188 -3.607483 34,025 318 408 64
2019-05-21 11:32:25 GMT 51.291000 -3.599730 34,025 318 409 64
2019-05-21 11:32:22 GMT 51.286835 -3.593717 34,025 319 409 64
2019-05-21 11:32:18 GMT 51.281387 -3.586044 34,025 320 409 64
2019-05-21 11:32:14 GMT 51.276123 -3.578871 34,025 324 409 0
2019-05-21 11:32:11 GMT 51.271912 -3.573303 34,025 321 409 64
2019-05-21 11:32:08 GMT 51.266724 -3.566589 34,025 322 409 0
2019-05-21 11:32:05 GMT 51.263672 -3.562688 34,025 330 410 0
2019-05-21 11:32:02 GMT 51.257736 -3.555450 34,025 324 410 0
2019-05-21 11:31:59 GMT 51.252548 -3.549252 34,025 324 410 0
2019-05-21 11:31:56 GMT 51.248615 -3.544693 34,025 326 410 0
2019-05-21 11:31:53 GMT 51.244263 -3.539676 34,025 325 409 0
2019-05-21 11:31:50 GMT 51.239410 -3.534331 34,025 326 410 0
2019-05-21 11:31:47 GMT 51.235382 -3.529952 34,025 327 410 0
2019-05-21 11:31:44 GMT 51.229900 -3.524246 34,025 328 409 0
2019-05-21 11:31:41 GMT 51.220871 -3.515105 34,025 329 410 0
2019-05-21 11:31:35 GMT 51.211044 -3.505630 34,025 330 410 0
2019-05-21 11:31:32 GMT 51.211044 -3.505630 34,000 337 411 0
2019-05-21 11:31:29 GMT 51.206112 -3.501129 34,000 337 411 0
2019-05-21 11:31:26 GMT 51.201504 -3.497009 34,025 332 411 0
2019-05-21 11:31:23 GMT 51.196289 -3.492390 34,025 332 411 0
2019-05-21 11:31:19 GMT 51.187817 -3.485260 34,000 333 411 0
2019-05-21 11:31:16 GMT 51.182743 -3.481140 34,025 335 411 0
2019-05-21 11:31:12 GMT 51.172211 -3.473016 34,000 357 413 0
2019-05-21 11:31:09 GMT 51.172211 -3.473016 34,000 336 411 0
2019-05-21 11:31:06 GMT 51.164726 -3.467484 34,000 338 411 0
2019-05-21 11:31:02 GMT 51.160210 -3.464355 34,000 338 411 0
2019-05-21 11:30:59 GMT 51.153927 -3.460083 34,000 338 411 0
2019-05-21 11:30:56 GMT 51.143032 -3.453064 34,000 339 411 0
2019-05-21 11:30:52 GMT 51.143032 -3.453064 34,000 339 411 0
2019-05-21 11:30:49 GMT 51.137283 -3.449484 34,000 340 411 0
2019-05-21 11:30:46 GMT 51.130417 -3.445511 34,000 343 412 0
2019-05-21 11:30:42 GMT 51.120071 -3.439834 34,000 342 412 0
2019-05-21 11:30:39 GMT 51.120071 -3.439834 34,000 342 411 0
2019-05-21 11:30:36 GMT 51.112774 -3.436050 34,000 346 412 0
2019-05-21 11:30:33 GMT 51.109840 -3.434601 34,000 344 411 0
2019-05-21 11:30:30 GMT 51.101322 -3.430557 34,000 345 411 0
2019-05-21 11:30:27 GMT 51.097366 -3.428774 34,000 351 412 0
2019-05-21 11:30:24 GMT 51.093521 -3.427141 34,000 350 412 0
2019-05-21 11:30:21 GMT 51.080002 -3.421631 34,000 347 411 0
2019-05-21 11:30:18 GMT 51.080002 -3.421631 34,000 355 412 0
2019-05-21 11:30:15 GMT 51.076279 -3.420258 34,000 348 411 64
2019-05-21 11:30:12 GMT 51.068939 -3.417713 34,000 349 411 64
2019-05-21 11:30:09 GMT 51.063477 -3.415909 34,000 349 412 0
2019-05-21 11:30:06 GMT 51.057655 -3.414078 34,000 2 414 -64
2019-05-21 11:30:02 GMT 51.051514 -3.412323 34,000 351 412 0
2019-05-21 11:29:59 GMT 51.045593 -3.410735 34,000 353 411 0
2019-05-21 11:29:56 GMT 51.040695 -3.409473 34,000 352 412 0
2019-05-21 11:29:53 GMT 51.033264 -3.407745 34,000 358 413 0
2019-05-21 11:29:49 GMT 51.025040 -3.406133 34,000 355 413 0
2019-05-21 11:29:46 GMT 51.020229 -3.405228 34,000 355 413 0
2019-05-21 11:29:43 GMT 51.014648 -3.404351 34,000 355 412 0
2019-05-21 11:29:40 GMT 51.009705 -3.403609 34,000 358 413 0
2019-05-21 11:29:37 GMT 50.997711 -3.402199 34,000 358 413 0
2019-05-21 11:29:34 GMT 50.997711 -3.402199 34,000 357 413 0
2019-05-21 11:29:31 GMT 50.986679 -3.401308 34,000 2 414 0
2019-05-21 11:29:28 GMT 50.986679 -3.401308 34,000 359 413 0
2019-05-21 11:29:24 GMT 50.978851 -3.400937 34,000 359 413 0
2019-05-21 11:29:21 GMT 50.973129 -3.400862 34,000 6 414 64
2019-05-21 11:29:18 GMT 50.967773 -3.400862 34,000 0 414 0
2019-05-21 11:29:15 GMT 50.961758 -3.400955 34,000 1 414 -64
2019-05-21 11:29:12 GMT 50.957840 -3.401085 34,000 2 414 -64
2019-05-21 11:29:09 GMT 50.948456 -3.401605 34,000 4 414 0
2019-05-21 11:29:05 GMT 50.942368 -3.402124 34,000 3 414 0
2019-05-21 11:29:02 GMT 50.933029 -3.403238 34,000 4 414 0
2019-05-21 11:28:56 GMT 50.925385 -3.404277 34,000 6 414 0
2019-05-21 11:28:53 GMT 50.920326 -3.405151 34,000 6 414 64
2019-05-21 11:28:50 GMT 50.913574 -3.406281 34,000 6 414 64
2019-05-21 11:28:47 GMT 50.909107 -3.407059 34,000 6 414 0
2019-05-21 11:28:44 GMT 50.898636 -3.408813 34,000 6 414 0
2019-05-21 11:28:38 GMT 50.885605 -3.411032 34,000 6 415 -64
2019-05-21 11:28:35 GMT 50.885605 -3.411032 34,000 6 415 0
2019-05-21 11:28:32 GMT 50.878242 -3.412323 34,000 6 414 0
2019-05-21 11:28:29 GMT 50.874344 -3.412962 34,000 6 414 0
2019-05-21 11:28:26 GMT 50.862534 -3.414966 34,000 6 414 0
2019-05-21 11:28:23 GMT 50.862534 -3.414966 34,000 6 414 0
2019-05-21 11:28:17 GMT 50.850452 -3.417053 34,000 6 414 0
2019-05-21 11:28:14 GMT 50.846558 -3.417713 34,000 6 414 0
2019-05-21 11:28:11 GMT 50.840584 -3.418808 34,000 6 414 0
2019-05-21 11:28:08 GMT 50.834484 -3.419800 34,000 6 414 0
2019-05-21 11:28:04 GMT 50.821426 -3.422093 34,000 6 414 0
2019-05-21 11:28:01 GMT 50.821426 -3.422093 34,000 6 414 0
2019-05-21 11:27:58 GMT 50.816483 -3.422984 34,000 6 414 0
2019-05-21 11:27:54 GMT 50.807327 -3.424542 34,000 6 414 0
2019-05-21 11:27:50 GMT 50.801338 -3.425598 34,000 6 414 0
2019-05-21 11:27:47 GMT 50.794601 -3.426769 34,000 6 414 0
2019-05-21 11:27:44 GMT 50.787842 -3.427963 34,000 6 414 0
2019-05-21 11:27:41 GMT 50.783386 -3.428699 34,000 6 414 0
2019-05-21 11:27:38 GMT 50.776806 -3.429871 34,000 6 413 0
2019-05-21 11:27:35 GMT 50.772060 -3.430710 34,000 6 414 0
2019-05-21 11:27:32 GMT 50.766193 -3.431702 34,000 6 414 0
2019-05-21 11:27:29 GMT 50.760178 -3.432708 34,000 6 414 0
2019-05-21 11:27:26 GMT 50.755829 -3.433524 34,000 5 413 0
2019-05-21 11:27:23 GMT 50.747944 -3.434830 34,000 6 414 0
2019-05-21 11:27:20 GMT 50.744125 -3.435516 34,000 6 413 0
2019-05-21 11:27:17 GMT 50.738262 -3.436508 34,000 6 413 0
2019-05-21 11:27:14 GMT 50.732349 -3.437576 34,000 5 412 0
2019-05-21 11:27:11 GMT 50.726944 -3.438498 34,000 6 413 0
2019-05-21 11:27:08 GMT 50.720673 -3.439537 34,000 6 413 0
2019-05-21 11:27:05 GMT 50.715775 -3.440354 34,000 6 413 0
2019-05-21 11:27:02 GMT 50.707863 -3.441696 34,000 5 413 0
2019-05-21 11:26:59 GMT 50.703232 -3.442432 34,000 5 413 0
2019-05-21 11:26:55 GMT 50.694305 -3.443917 34,000 5 413 0
2019-05-21 11:26:52 GMT 50.691383 -3.444443 34,000 5 413 0
2019-05-21 11:26:49 GMT 50.683319 -3.445773 34,000 5 413 0
2019-05-21 11:26:43 GMT 50.671600 -3.447703 34,000 5 412 0
2019-05-21 11:26:40 GMT 50.667873 -3.448297 34,000 5 412 0
2019-05-21 11:26:37 GMT 50.663361 -3.449039 34,000 5 412 0
2019-05-21 11:26:33 GMT 50.648930 -3.451414 34,000 5 412 0
2019-05-21 11:26:30 GMT 50.648930 -3.451414 34,000 5 412 0
2019-05-21 11:26:27 GMT 50.636353 -3.453466 34,000 6 412 0
2019-05-21 11:26:23 GMT 50.636353 -3.453466 34,000 6 412 0
2019-05-21 11:26:20 GMT 50.628799 -3.454767 34,000 5 412 0
2019-05-21 11:26:17 GMT 50.618855 -3.456388 34,000 5 412 0
2019-05-21 11:26:10 GMT 50.608749 -3.458091 34,000 6 412 0
2019-05-21 11:26:07 GMT 50.606007 -3.458541 34,000 6 412 0
2019-05-21 11:26:04 GMT 50.598045 -3.459877 34,000 6 412 0
2019-05-21 11:26:00 GMT 50.590210 -3.461199 34,000 6 412 0
2019-05-21 11:25:56 GMT 50.583572 -3.462283 34,000 6 412 0
2019-05-21 11:25:49 GMT 50.571186 -3.464405 34,000 6 412 0
2019-05-21 11:25:46 GMT 50.566544 -3.465175 34,000 6 412 -64
2019-05-21 11:25:43 GMT 50.560013 -3.466261 34,000 6 412 0
2019-05-21 11:25:39 GMT 50.553085 -3.467488 34,000 6 412 0
2019-05-21 11:25:36 GMT 50.546745 -3.468562 34,000 6 412 0
2019-05-21 11:25:33 GMT 50.541962 -3.469439 34,000 6 412 -64
2019-05-21 11:25:30 GMT 50.535435 -3.470566 34,000 6 412 -64
2019-05-21 11:25:27 GMT 50.528915 -3.471607 34,000 4 411 0
2019-05-21 11:25:24 GMT 50.525005 -3.472199 34,000 5 411 0
2019-05-21 11:25:20 GMT 50.515182 -3.473387 34,000 3 410 0
2019-05-21 11:25:17 GMT 50.508572 -3.473981 34,000 2 410 0
2019-05-21 11:25:14 GMT 50.504883 -3.474209 34,025 0 410 0
2019-05-21 11:25:11 GMT 50.499077 -3.474501 34,000 0 410 0
2019-05-21 11:25:08 GMT 50.492386 -3.474715 34,000 356 409 -64
2019-05-21 11:25:05 GMT 50.487530 -3.474723 34,000 0 410 0
2019-05-21 11:24:59 GMT 50.475430 -3.474352 34,000 358 409 0
2019-05-21 11:24:56 GMT 50.470596 -3.474065 34,000 358 409 0
2019-05-21 11:24:53 GMT 50.465977 -3.473684 33,975 350 407 64
2019-05-21 11:24:50 GMT 50.459290 -3.473053 34,000 356 409 0
2019-05-21 11:24:47 GMT 50.455223 -3.472570 34,000 355 409 -64
2019-05-21 11:24:44 GMT 50.448578 -3.471607 33,550 353 409 0
2019-05-21 11:24:38 GMT 50.436649 -3.469527 34,000 352 408 64
2019-05-21 11:24:35 GMT 50.429714 -3.468042 34,000 352 408 64
2019-05-21 11:24:32 GMT 50.425243 -3.467003 34,000 352 408 64
2019-05-21 11:24:29 GMT 50.419147 -3.465370 34,000 351 407 0
2019-05-21 11:24:26 GMT 50.413467 -3.463801 34,000 349 406 64
2019-05-21 11:24:23 GMT 50.408661 -3.462356 33,975 345 402 0
2019-05-21 11:24:20 GMT 50.403351 -3.460621 33,975 348 406 0
2019-05-21 11:24:17 GMT 50.398224 -3.458886 34,000 347 405 0
2019-05-21 11:24:14 GMT 50.392731 -3.456863 34,000 344 401 0
2019-05-21 11:24:11 GMT 50.388016 -3.455056 34,000 344 401 0
2019-05-21 11:24:08 GMT 50.381561 -3.452309 34,000 346 403 0
2019-05-21 11:24:05 GMT 50.376083 -3.449930 34,000 343 399 0
2019-05-21 11:24:02 GMT 50.371399 -3.447756 34,000 343 398 0
2019-05-21 11:23:59 GMT 50.364853 -3.444575 34,000 342 396 64
2019-05-21 11:23:56 GMT 50.361469 -3.442878 34,000 342 396 64
2019-05-21 11:23:53 GMT 50.355835 -3.439877 34,000 340 391 0
2019-05-21 11:23:50 GMT 50.351349 -3.437420 34,000 341 394 64
2019-05-21 11:23:47 GMT 50.340454 -3.431131 34,000 338 389 0
2019-05-21 11:23:41 GMT 50.333534 -3.426769 34,000 338 387 -64
2019-05-21 11:23:38 GMT 50.330292 -3.424699 34,000 337 387 -64
2019-05-21 11:23:35 GMT 50.321320 -3.418627 34,000 336 384 -128
2019-05-21 11:23:32 GMT 50.321320 -3.418627 34,025 334 380 -64
2019-05-21 11:23:29 GMT 50.315552 -3.414435 34,025 332 375 64
2019-05-21 11:23:26 GMT 50.310791 -3.410821 34,025 334 378 -64
2019-05-21 11:23:23 GMT 50.305618 -3.406774 34,025 333 377 64
2019-05-21 11:23:20 GMT 50.301090 -3.403089 34,025 332 375 128
2019-05-21 11:23:17 GMT 50.297195 -3.399835 34,000 330 375 0
2019-05-21 11:23:13 GMT 50.291016 -3.394342 34,025 330 375 -64
2019-05-21 11:23:10 GMT 50.285156 -3.389065 34,025 330 375 -64
2019-05-21 11:23:04 GMT 50.278091 -3.382453 34,025 330 376 64
2019-05-21 11:23:01 GMT 50.272694 -3.377479 34,000 330 376 192
2019-05-21 11:22:58 GMT 50.268311 -3.373381 33,975 330 379 320
2019-05-21 11:22:55 GMT 50.263184 -3.368755 33,925 330 380 1152
2019-05-21 11:22:52 GMT 50.255005 -3.361223 33,900 330 380 1152
2019-05-21 11:22:49 GMT 50.255005 -3.361223 33,925 330 380 512
2019-05-21 11:22:43 GMT 50.245697 -3.352709 33,875 330 381 960
2019-05-21 11:22:40 GMT 50.239407 -3.346970 33,725 330 381 960
2019-05-21 11:22:37 GMT 50.234756 -3.342735 33,825 330 380 1600
2019-05-21 11:22:33 GMT 50.231232 -3.339555 33,725 330 381 1152
2019-05-21 11:22:30 GMT 50.226746 -3.335464 33,625 330 380 1216
2019-05-21 11:22:27 GMT 50.220367 -3.329600 33,550 330 380 1088
2019-05-21 11:22:24 GMT 50.217342 -3.326853 33,525 330 380 1088
2019-05-21 11:22:21 GMT 50.212360 -3.322325 33,475 330 379 896
2019-05-21 11:22:18 GMT 50.208664 -3.318955 33,450 330 371 1792
2019-05-21 11:22:15 GMT 50.203751 -3.314456 33,425 330 379 896
2019-05-21 11:22:11 GMT 50.197220 -3.308475 33,325 330 376 768
2019-05-21 11:22:08 GMT 50.193146 -3.304716 33,325 330 376 768
2019-05-21 11:22:05 GMT 50.188522 -3.300524 32,850 330 385 2688
2019-05-21 11:22:02 GMT 50.183304 -3.295682 33,250 330 373 832
2019-05-21 11:21:59 GMT 50.180099 -3.292781 33,225 330 372 1088
2019-05-21 11:21:55 GMT 50.173119 -3.286323 33,125 330 372 2368
2019-05-21 11:21:52 GMT 50.169159 -3.282685 33,000 330 372 2368
2019-05-21 11:21:49 GMT 50.164627 -3.278552 33,000 330 371 2112
2019-05-21 11:21:46 GMT 50.160873 -3.275039 32,825 330 373 2496
2019-05-21 11:21:43 GMT 50.156799 -3.271324 32,550 330 380 1600
2019-05-21 11:21:40 GMT 50.149422 -3.264573 32,500 330 375 3072
2019-05-21 11:21:37 GMT 50.146442 -3.261826 31,525 330 387 2304
2019-05-21 11:21:34 GMT 50.141926 -3.257669 32,025 330 380 2752
2019-05-21 11:21:31 GMT 50.137413 -3.253512 32,025 330 380 2752
2019-05-21 11:21:28 GMT 50.132904 -3.249423 32,025 330 380 2752
2019-05-21 11:21:24 GMT 50.126751 -3.243788 31,725 330 382 2752
2019-05-21 11:21:21 GMT 50.122002 -3.239482 31,525 330 387 2432
2019-05-21 11:21:17 GMT 50.116043 -3.233989 31,500 330 387 2560
2019-05-21 11:21:14 GMT 50.111481 -3.229836 31,175 330 388 2112
2019-05-21 11:21:11 GMT 50.106995 -3.225716 31,100 330 388 1792
2019-05-21 11:21:08 GMT 50.102188 -3.221379 31,050 330 388 1792
2019-05-21 11:21:04 GMT 50.095688 -3.215452 31,050 330 388 1792
2019-05-21 11:21:01 GMT 50.091419 -3.211497 30,925 330 389 1856
2019-05-21 11:20:58 GMT 50.086624 -3.207117 30,775 330 390 1920
2019-05-21 11:20:54 GMT 50.079361 -3.200510 30,650 330 390 1856
2019-05-21 11:20:51 GMT 50.076241 -3.197615 30,650 330 390 1856
2019-05-21 11:20:47 GMT 50.070099 -3.192034 30,050 330 380 1600
2019-05-21 11:20:44 GMT 50.060879 -3.183586 30,300 330 390 1856
2019-05-21 11:20:38 GMT 50.056038 -3.179206 30,225 330 390 1792
2019-05-21 11:20:34 GMT 50.043365 -3.167676 30,050 330 390 1600
2019-05-21 11:20:30 GMT 50.043365 -3.167676 30,000 330 390 1600
2019-05-21 11:20:27 GMT 50.038815 -3.163543 29,950 330 389 1472
2019-05-21 11:20:24 GMT 50.031235 -3.156690 29,800 330 388 1408
2019-05-21 11:20:21 GMT 50.029598 -3.155229 29,800 330 389 1536
2019-05-21 11:20:18 GMT 50.020145 -3.146618 29,175 330 380 1600
2019-05-21 11:20:12 GMT 50.015678 -3.142535 29,475 330 387 1408
2019-05-21 11:20:08 GMT 50.010361 -3.137681 29,475 330 387 1408
2019-05-21 11:20:05 GMT 50.004822 -3.132621 29,375 330 386 1472
2019-05-21 11:20:02 GMT 49.998871 -3.127243 29,225 330 384 1408
2019-05-21 11:19:57 GMT 49.992966 -3.121852 29,075 330 384 1408
2019-05-21 11:19:54 GMT 49.988342 -3.117660 29,100 330 384 1408
2019-05-21 11:19:51 GMT 49.981976 -3.111952 28,975 330 378 1664
2019-05-21 11:19:48 GMT 49.978764 -3.108982 28,975 330 383 1344
2019-05-21 11:19:45 GMT 49.973785 -3.104505 28,900 330 383 1408
2019-05-21 11:19:42 GMT 49.967449 -3.098738 28,800 330 382 1472
2019-05-21 11:19:36 GMT 49.956371 -3.088643 28,350 330 378 1664
2019-05-21 11:19:33 GMT 49.956371 -3.088643 28,375 330 380 1600
2019-05-21 11:19:30 GMT 49.951061 -3.083818 28,525 330 380 1600
2019-05-21 11:19:26 GMT 49.941193 -3.074910 28,350 330 378 1664
2019-05-21 11:19:20 GMT 49.934464 -3.068799 28,225 330 378 1664
2019-05-21 11:19:16 GMT 49.929932 -3.064752 28,150 330 378 1664
2019-05-21 11:19:12 GMT 49.924484 -3.059837 28,000 330 377 1536
2019-05-21 11:19:09 GMT 49.919315 -3.055090 27,975 330 377 1472
2019-05-21 11:19:05 GMT 49.914192 -3.050488 27,750 330 376 1472
2019-05-21 11:19:02 GMT 49.908329 -3.045143 27,825 330 375 1536
2019-05-21 11:18:59 GMT 49.904465 -3.041654 27,725 330 375 1600
2019-05-21 11:18:55 GMT 49.894821 -3.032949 27,500 330 373 1856
2019-05-21 11:18:49 GMT 49.887707 -3.026585 27,375 330 373 1856
2019-05-21 11:18:45 GMT 49.883194 -3.022469 27,300 330 372 1856
2019-05-21 11:18:42 GMT 49.872940 -3.013217 27,025 330 371 1664
2019-05-21 11:18:38 GMT 49.872940 -3.013217 27,075 330 371 1728
2019-05-21 11:18:35 GMT 49.868774 -3.009459 27,000 330 370 1920
2019-05-21 11:18:32 GMT 49.864105 -3.005280 26,900 330 370 1792
2019-05-21 11:18:28 GMT 49.856506 -2.998400 26,750 330 370 2048
2019-05-21 11:18:24 GMT 49.851929 -2.994280 26,650 330 370 2176
2019-05-21 11:18:21 GMT 49.848881 -2.991547 26,550 330 370 2432
2019-05-21 11:18:17 GMT 49.842365 -2.985683 26,400 330 373 2880
2019-05-21 11:18:14 GMT 49.834217 -2.978334 26,175 330 372 2816
2019-05-21 11:18:08 GMT 49.829609 -2.974177 26,025 330 372 2880
2019-05-21 11:18:04 GMT 49.817970 -2.963785 25,650 331 374 2240
2019-05-21 11:18:01 GMT 49.814667 -2.960815 24,975 331 374 2048
2019-05-21 11:17:55 GMT 49.808121 -2.955033 25,250 331 373 1600
2019-05-21 11:17:51 GMT 49.803261 -2.950646 25,275 331 373 1600
2019-05-21 11:17:48 GMT 49.798691 -2.946649 25,125 331 372 1344
2019-05-21 11:17:44 GMT 49.792599 -2.941218 25,050 331 372 1472
2019-05-21 11:17:41 GMT 49.787933 -2.937108 24,800 331 372 1280
2019-05-21 11:17:37 GMT 49.782452 -2.932310 24,925 331 372 1344
2019-05-21 11:17:34 GMT 49.777771 -2.928146 24,850 331 373 1088
2019-05-21 11:17:30 GMT 49.772305 -2.923328 24,800 331 372 1280
2019-05-21 11:17:27 GMT 49.767426 -2.919111 24,550 331 372 1536
2019-05-21 11:17:24 GMT 49.762245 -2.914569 24,625 331 372 1920
2019-05-21 11:17:19 GMT 49.755638 -2.908853 24,450 331 374 2240
2019-05-21 11:17:16 GMT 49.751633 -2.905378 24,200 331 374 2240
2019-05-21 11:17:13 GMT 49.740414 -2.895714 23,850 331 373 2176
2019-05-21 11:17:09 GMT 49.740414 -2.895714 23,875 331 373 2176
2019-05-21 11:17:06 GMT 49.735760 -2.891631 23,975 331 373 2176
2019-05-21 11:17:02 GMT 49.730713 -2.887308 23,850 331 372 2112
2019-05-21 11:16:58 GMT 49.722427 -2.880153 23,550 329 368 2112
2019-05-21 11:16:55 GMT 49.719452 -2.877478 23,575 327 367 2304
2019-05-21 11:16:52 GMT 49.713501 -2.872274 23,475 331 371 1856
2019-05-21 11:16:49 GMT 49.710388 -2.869455 23,400 330 370 1920
2019-05-21 11:16:45 GMT 49.697891 -2.858108 22,775 329 368 2112
2019-05-21 11:16:41 GMT 49.697891 -2.858108 23,125 329 368 2112
2019-05-21 11:16:38 GMT 49.694092 -2.854566 23,025 329 368 2112
2019-05-21 11:16:32 GMT 49.685902 -2.846795 22,800 327 367 2304
2019-05-21 11:16:29 GMT 49.681137 -2.842062 22,675 327 367 2304
2019-05-21 11:16:23 GMT 49.671936 -2.832666 22,500 327 367 2240
2019-05-21 11:16:20 GMT 49.669189 -2.829870 22,275 327 365 2048
2019-05-21 11:16:17 GMT 49.664951 -2.825565 22,300 327 365 2048
2019-05-21 11:16:12 GMT 49.657562 -2.817993 22,100 327 363 2240
2019-05-21 11:16:09 GMT 49.649498 -2.809753 21,925 327 363 2240
2019-05-21 11:15:59 GMT 49.639389 -2.799418 20,950 327 360 2816
2019-05-21 11:15:56 GMT 49.635498 -2.795442 21,500 327 360 2560
2019-05-21 11:15:52 GMT 49.629200 -2.788968 21,325 327 360 2560
2019-05-21 11:15:48 GMT 49.623524 -2.783104 21,200 327 360 2688
2019-05-21 11:15:45 GMT 49.620312 -2.779838 21,025 327 360 2752
2019-05-21 11:15:42 GMT 49.615047 -2.774419 20,700 327 360 2816
2019-05-21 11:15:39 GMT 49.611374 -2.770651 20,750 327 360 2816
2019-05-21 11:15:35 GMT 49.605011 -2.764073 20,525 327 360 2304
2019-05-21 11:15:30 GMT 49.598465 -2.757424 20,350 327 359 2304
2019-05-21 11:15:26 GMT 49.593384 -2.752147 20,000 327 358 2560
2019-05-21 11:15:22 GMT 49.587708 -2.746365 19,950 327 358 2752
2019-05-21 11:15:19 GMT 49.584091 -2.742574 19,850 327 358 2880
2019-05-21 11:15:16 GMT 49.578506 -2.736897 19,725 327 358 3008
2019-05-21 11:15:11 GMT 49.572464 -2.730681 19,300 327 358 3200
2019-05-21 11:15:07 GMT 49.566727 -2.724832 18,925 327 360 3008
2019-05-21 11:15:04 GMT 49.564041 -2.722007 19,025 327 352 2560
2019-05-21 11:15:01 GMT 49.557045 -2.714885 18,825 327 358 2432
2019-05-21 11:14:57 GMT 49.554199 -2.712033 18,750 327 352 2560
2019-05-21 11:14:53 GMT 49.548798 -2.706467 18,650 327 359 2496
2019-05-21 11:14:49 GMT 49.541962 -2.699519 18,400 327 357 2432
2019-05-21 11:14:46 GMT 49.538658 -2.696179 17,450 327 352 2560
2019-05-21 11:14:43 GMT 49.534374 -2.691799 18,200 327 356 2304
2019-05-21 11:14:38 GMT 49.526600 -2.683856 18,000 327 355 2624
2019-05-21 11:14:34 GMT 49.517708 -2.674800 17,700 327 354 2688
2019-05-21 11:14:27 GMT 49.512260 -2.669232 17,525 327 352 2560
2019-05-21 11:14:23 GMT 49.507324 -2.664185 17,175 327 351 2816
2019-05-21 11:14:20 GMT 49.496201 -2.652753 17,000 327 350 2944
2019-05-21 11:14:13 GMT 49.492126 -2.648572 16,750 327 350 2752
2019-05-21 11:14:09 GMT 49.488602 -2.644958 16,725 327 349 2816
2019-05-21 11:14:06 GMT 49.483795 -2.639971 16,525 327 348 3008
2019-05-21 11:14:03 GMT 49.479630 -2.635707 16,400 327 348 3008
2019-05-21 11:13:59 GMT 49.474506 -2.630409 16,125 327 348 2880
2019-05-21 11:13:56 GMT 49.469879 -2.625660 16,050 327 348 2880
2019-05-21 11:13:51 GMT 49.463661 -2.619274 15,825 327 346 2944
2019-05-21 11:13:48 GMT 49.459938 -2.615488 15,675 327 346 2944
2019-05-21 11:13:43 GMT 49.451698 -2.607026 15,400 327 345 2880
2019-05-21 11:13:40 GMT 49.449837 -2.605096 14,925 327 344 2944
2019-05-21 11:13:37 GMT 49.445389 -2.600580 15,200 327 345 2944
2019-05-21 11:13:32 GMT 49.438988 -2.593961 14,925 327 343 2752
2019-05-21 11:13:27 GMT 49.432285 -2.587058 14,750 327 342 2624
2019-05-21 11:13:24 GMT 49.428177 -2.582799 14,525 327 340 2688
2019-05-21 11:13:21 GMT 49.423904 -2.578462 14,400 327 339 2816
2019-05-21 11:13:18 GMT 49.414551 -2.568849 13,900 327 336 3328
2019-05-21 11:13:13 GMT 49.414551 -2.568849 14,050 327 338 3136
2019-05-21 11:13:08 GMT 49.407005 -2.561188 13,650 327 336 3392
2019-05-21 11:13:05 GMT 49.402630 -2.556634 13,525 327 336 3392
2019-05-21 11:12:59 GMT 49.396023 -2.549912 13,250 327 336 3520
2019-05-21 11:12:56 GMT 49.392296 -2.546082 13,225 327 336 3520
2019-05-21 11:12:51 GMT 49.380520 -2.534011 11,250 327 332 2688
2019-05-21 11:12:48 GMT 49.373535 -2.526855 12,150 327 335 3328
2019-05-21 11:12:42 GMT 49.373535 -2.526855 12,150 327 335 3264
2019-05-21 11:12:39 GMT 49.370464 -2.523675 12,125 327 335 3264
2019-05-21 11:12:36 GMT 49.366653 -2.519813 11,800 327 335 3136
2019-05-21 11:12:32 GMT 49.360611 -2.513616 11,700 327 333 2880
2019-05-21 11:12:29 GMT 49.357269 -2.510235 11,600 327 332 2624
2019-05-21 11:12:24 GMT 49.350357 -2.503263 11,325 327 326 1920
2019-05-21 11:12:20 GMT 49.345825 -2.498615 11,150 327 321 1664
2019-05-21 11:12:17 GMT 49.340698 -2.493404 11,125 327 319 1536
2019-05-21 11:12:14 GMT 49.337177 -2.489849 11,075 327 318 1472
2019-05-21 11:12:09 GMT 49.331825 -2.484428 10,900 327 310 1472
2019-05-21 11:12:06 GMT 49.328064 -2.480586 10,875 327 306 1536
2019-05-21 11:12:03 GMT 49.325169 -2.477634 10,825 327 305 1536
2019-05-21 11:11:59 GMT 49.316803 -2.469036 10,150 326 282 3136
2019-05-21 11:11:56 GMT 49.316803 -2.469036 10,575 327 276 3264
2019-05-21 11:11:53 GMT 49.313095 -2.465233 10,525 327 291 1984
2019-05-21 11:11:50 GMT 49.309807 -2.461877 10,450 327 288 2112
2019-05-21 11:11:45 GMT 49.304581 -2.456430 10,225 326 285 2752
2019-05-21 11:11:41 GMT 49.299271 -2.450937 9,975 326 282 3136
2019-05-21 11:11:38 GMT 49.297211 -2.448824 9,525 327 277 3200
2019-05-21 11:11:35 GMT 49.293934 -2.445470 9,625 326 280 3200
2019-05-21 11:11:32 GMT 49.290115 -2.441500 9,525 326 278 3136
2019-05-21 11:11:28 GMT 49.286018 -2.437302 9,400 327 277 3200
2019-05-21 11:11:25 GMT 49.283039 -2.434194 8,900 327 273 2816
2019-05-21 11:11:20 GMT 49.277683 -2.428701 8,900 327 273 2880
2019-05-21 11:11:17 GMT 49.274940 -2.425882 8,775 327 271 2624
2019-05-21 11:11:09 GMT 49.266724 -2.417556 8,475 327 264 2112
2019-05-21 11:11:06 GMT 49.263657 -2.414457 8,425 327 262 1984
2019-05-21 11:11:03 GMT 49.259296 -2.410053 8,325 327 258 1920
2019-05-21 11:10:57 GMT 49.254456 -2.405231 8,150 328 251 1984
2019-05-21 11:10:54 GMT 49.251709 -2.402555 8,000 328 246 2048
2019-05-21 11:10:49 GMT 49.246868 -2.397766 7,800 328 238 2496
2019-05-21 11:10:44 GMT 49.237186 -2.388587 7,200 329 232 3776
2019-05-21 11:10:39 GMT 49.237186 -2.388587 7,225 329 232 3840
2019-05-21 11:10:34 GMT 49.233089 -2.384901 6,925 330 232 4224
2019-05-21 11:10:28 GMT 49.227081 -2.379624 6,475 331 234 4288
2019-05-21 11:10:24 GMT 49.223591 -2.376589 6,225 331 236 3968
2019-05-21 11:10:18 GMT 49.217789 -2.371427 5,825 329 236 3712
2019-05-21 11:10:13 GMT 49.213211 -2.367048 5,525 302 238 4032
2019-05-21 11:10:08 GMT 49.208405 -2.361215 5,150 315 236 3968
2019-05-21 11:10:04 GMT 49.205887 -2.356920 4,925 308 237 4096
2019-05-21 11:09:57 GMT 49.201992 -2.346954 4,450 294 238 3904
2019-05-21 11:09:52 GMT 49.199989 -2.339076 4,125 283 237 3392
2019-05-21 11:09:46 GMT 49.198563 -2.330510 3,825 282 237 3392
2019-05-21 11:09:43 GMT 49.197739 -2.324101 3,625 278 235 3072
2019-05-21 11:09:35 GMT 49.197151 -2.311755 3,250 267 228 2560
2019-05-21 11:09:30 GMT 49.197475 -2.303226 3,125 266 227 2240
2019-05-21 11:09:25 GMT 49.198174 -2.295998 2,925 262 216 1664
2019-05-21 11:09:20 GMT 49.198917 -2.288264 2,850 261 209 1472
2019-05-21 11:09:15 GMT 49.199711 -2.281109 2,650 261 198 1728
2019-05-21 11:09:10 GMT 49.200363 -2.274965 2,525 261 195 1728
2019-05-21 11:09:02 GMT 49.201538 -2.263677 2,250 261 183 1984
2019-05-21 11:08:55 GMT 49.202499 -2.254662 2,025 261 176 2112
2019-05-21 11:08:51 GMT 49.202923 -2.250824 1,900 262 172 2048
2019-05-21 11:08:44 GMT 49.203781 -2.241915 1,650 262 165 2304
2019-05-21 11:08:41 GMT 49.204056 -2.239028 1,550 262 163 2560
2019-05-21 11:08:33 GMT 49.204926 -2.229943 1,150 262 160 2880
2019-05-21 11:08:27 GMT 49.205578 -2.223214 875 262 158 2624
2019-05-21 11:08:21 GMT 49.206253 -2.215858 600 263 153 2304
2019-05-21 11:08:15 GMT 49.206711 -2.210294 400 263 151 2368
2019-05-21 11:08:11 GMT 49.207111 -2.205216 275 264 150 2304
2019-05-21 11:08:03 GMT 49.207951 -2.195025 125 263 115 -64
2019-05-21 11:07:50 GMT 49.208576 -2.187705 0 264 69
2019-05-21 11:07:40 GMT 49.208836 -2.184545 0 264 18
2019-05-21 11:07:31 GMT 49.208862 -2.184255 0 264 0
2019-05-21 11:07:19 GMT 49.208858 -2.184255 0 264 0
2019-05-21 11:07:10 GMT 49.208862 -2.184255 0 264 0
2019-05-21 11:06:59 GMT 49.208904 -2.184075 0 295 5
2019-05-21 11:06:49 GMT 49.208824 -2.183822 0 351 6
2019-05-21 11:06:38 GMT 49.208450 -2.183744 0 354 9
2019-05-21 11:06:28 GMT 49.208076 -2.183713 0 19 9
2019-05-21 11:06:17 GMT 49.207775 -2.183938 0 39 5
2019-05-21 11:05:59 GMT 49.207684 -2.184021 0 39 0
2019-05-21 11:05:53 GMT 49.207684 -2.184026 0 39 0
2019-05-21 11:05:33 GMT 49.207695 -2.184026 0 39 0
2019-05-21 11:05:23 GMT 49.207706 -2.184021 0 39 0
2019-05-21 11:05:13 GMT 49.207706 -2.184026 0 39 0
2019-05-21 11:05:06 GMT 49.207706 -2.184039 0 39 0
2019-05-21 11:04:46 GMT 49.207718 -2.184043 0 39 0
2019-05-21 11:04:33 GMT 49.207531 -2.184255 0 45 9
2019-05-21 11:04:25 GMT 49.207344 -2.184599 0 73 9
2019-05-21 11:04:15 GMT 49.207272 -2.185329 0 81 13
2019-05-21 11:04:05 GMT 49.207184 -2.186297 0 81 15
2019-05-21 11:03:55 GMT 49.207088 -2.187454 0 81 17
2019-05-21 11:03:43 GMT 49.206974 -2.188832 0 81 17
2019-05-21 11:03:33 GMT 49.206894 -2.189836 0 81 14
2019-05-21 11:03:23 GMT 49.206810 -2.190742 0 81 13
2019-05-21 11:03:14 GMT 49.206741 -2.191628 0 92 13
2019-05-21 11:03:03 GMT 49.206860 -2.192618 0 106 17
2019-05-21 11:02:52 GMT 49.207054 -2.193778 0 92 15
2019-05-21 11:02:43 GMT 49.207008 -2.194695 0 78 12
2019-05-21 11:02:32 GMT 49.206913 -2.195495 0 78 11
2019-05-21 11:02:21 GMT 49.206764 -2.196181 0 47 10
2019-05-21 11:02:11 GMT 49.206470 -2.196561 0 28 7
2019-05-21 11:02:01 GMT 49.206226 -2.196760 0 50 5
2019-05-21 11:01:51 GMT 49.206116 -2.196966 0 78 0
2019-05-21 11:01:41 GMT 49.206104 -2.197037 0 78 0
2019-05-21 11:01:15 GMT 49.206112 -2.197031 0 78 0
2019-05-21 11:00:56 GMT 49.206116 -2.197019 0 78 0
2019-05-21 11:00:40 GMT 49.206112 -2.197013 0 78 0
2019-05-21 11:00:35 GMT 49.206116 -2.197019 0 78 0
2019-05-21 10:59:58 GMT 49.206112 -2.197013 0 78 0
2019-05-21 10:59:47 GMT 49.206116 -2.196984 0 78 3
2019-05-21 10:59:37 GMT 49.206139 -2.196790 0 84 4
2019-05-21 10:59:26 GMT 49.206036 -2.196597 0 123 4
2019-05-21 10:59:16 GMT 49.205879 -2.196471 0 146 4

Making use of Plane Finder data

You are free to use the raw flight data, aircraft information and images provided in this report for your own purposes provided the data is correctly attributed to Plane Finder. We ask that you please credit Plane Finder and link to planefinder.net in close proximity to the content.

Optionally one of the following logos (no smaller then 150x24px) can be used and must link to planefinder.net

Embedding the Plane Finder map

You are welcome to embed the Plane Finder playback map on your website to offer visitors a more interactive experience. We suggest using the following HTML code:

<iframe src="//planefinder.net/data/report/U26652-G-EZIX-7700-squawk-2019-05-21/map" width="800" height="600" seamless="seamless"></iframe>

Where our data comes from

Plane Finder has a global network of data feeds and antenna radars that receive data broadcast directly from aircraft. The primary technologies used are ADS-B and MLAT. We also show feeds from the FAA and a FLARM glider feed.

Click here to find out more about the Plane Finder network.

How we collect our data